<?xml version="1.0" encoding="UTF-8" standalone="no" ?>
<gpx xmlns="http://www.topografix.com/GPX/1/1" xmlns:xsi="http://www.w3.org/2001/XMLSchema-instance" xsi:schemaLocation="http://www.topografix.com/GPX/1/1 http://www.topografix.com/GPX/1/1/gpx.xsd" version="1.1" creator="VisuGPX - https://www.visugpx.com">
  <metadata>
    <name>Pics du Mont et de Baran</name>
    <desc><![CDATA[A partir d'Hautacam viste aux pics du Mont et de Baran]]></desc>
  </metadata>
  <trk>
    <name><![CDATA[2018-03-22 15:45:30]]></name>
    <trkseg>
      <trkpt lat="42.97238" lon="-0.00367">
        <ele>1687.38</ele>
        <time>2018-03-22T08:58:38Z</time>
      </trkpt>
      <trkpt lat="42.97241" lon="-0.0037">
        <ele>1687.38</ele>
        <time>2018-03-22T08:58:39Z</time>
      </trkpt>
      <trkpt lat="42.97208" lon="-0.00353">
        <ele>1687.19</ele>
        <time>2018-03-22T08:58:57Z</time>
      </trkpt>
      <trkpt lat="42.97181" lon="-0.00335">
        <ele>1685.76</ele>
        <time>2018-03-22T08:59:22Z</time>
      </trkpt>
      <trkpt lat="42.97171" lon="-0.00325">
        <ele>1684.88</ele>
        <time>2018-03-22T08:59:43Z</time>
      </trkpt>
      <trkpt lat="42.97171" lon="-0.00325">
        <ele>1684.89</ele>
        <time>2018-03-22T08:59:57Z</time>
      </trkpt>
      <trkpt lat="42.9717" lon="-0.00305">
        <ele>1683.65</ele>
        <time>2018-03-22T09:00:22Z</time>
      </trkpt>
      <trkpt lat="42.9717" lon="-0.00305">
        <ele>1682.64</ele>
        <time>2018-03-22T09:00:44Z</time>
      </trkpt>
      <trkpt lat="42.97169" lon="-0.00305">
        <ele>1681.73</ele>
        <time>2018-03-22T09:01:07Z</time>
      </trkpt>
      <trkpt lat="42.97166" lon="-0.00304">
        <ele>1681.32</ele>
        <time>2018-03-22T09:01:19Z</time>
      </trkpt>
      <trkpt lat="42.97159" lon="-0.00302">
        <ele>1680.99</ele>
        <time>2018-03-22T09:01:33Z</time>
      </trkpt>
      <trkpt lat="42.97158" lon="-0.00303">
        <ele>1678.91</ele>
        <time>2018-03-22T09:02:32Z</time>
      </trkpt>
      <trkpt lat="42.97151" lon="-0.00303">
        <ele>1677.54</ele>
        <time>2018-03-22T09:03:19Z</time>
      </trkpt>
      <trkpt lat="42.97143" lon="-0.00304">
        <ele>1677.33</ele>
        <time>2018-03-22T09:03:34Z</time>
      </trkpt>
      <trkpt lat="42.97142" lon="-0.00304">
        <ele>1676.45</ele>
        <time>2018-03-22T09:03:54Z</time>
      </trkpt>
      <trkpt lat="42.97136" lon="-0.00302">
        <ele>1675.38</ele>
        <time>2018-03-22T09:04:07Z</time>
      </trkpt>
      <trkpt lat="42.97134" lon="-0.00301">
        <ele>1675.16</ele>
        <time>2018-03-22T09:04:09Z</time>
      </trkpt>
      <trkpt lat="42.97111" lon="-0.00292">
        <ele>1672.23</ele>
        <time>2018-03-22T09:04:30Z</time>
      </trkpt>
      <trkpt lat="42.97096" lon="-0.00282">
        <ele>1672.39</ele>
        <time>2018-03-22T09:04:47Z</time>
      </trkpt>
      <trkpt lat="42.97095" lon="-0.00258">
        <ele>1672.06</ele>
        <time>2018-03-22T09:05:05Z</time>
      </trkpt>
      <trkpt lat="42.97094" lon="-0.00253">
        <ele>1670.92</ele>
        <time>2018-03-22T09:05:20Z</time>
      </trkpt>
      <trkpt lat="42.97093" lon="-0.00241">
        <ele>1670.43</ele>
        <time>2018-03-22T09:05:29Z</time>
      </trkpt>
      <trkpt lat="42.97089" lon="-0.00219">
        <ele>1667.02</ele>
        <time>2018-03-22T09:05:46Z</time>
      </trkpt>
      <trkpt lat="42.97089" lon="-0.00203">
        <ele>1663.88</ele>
        <time>2018-03-22T09:06:00Z</time>
      </trkpt>
      <trkpt lat="42.97091" lon="-0.00182">
        <ele>1660.73</ele>
        <time>2018-03-22T09:06:15Z</time>
      </trkpt>
      <trkpt lat="42.97094" lon="-0.00176">
        <ele>1659.04</ele>
        <time>2018-03-22T09:06:22Z</time>
      </trkpt>
      <trkpt lat="42.97094" lon="-0.00168">
        <ele>1658.13</ele>
        <time>2018-03-22T09:06:27Z</time>
      </trkpt>
      <trkpt lat="42.97093" lon="-0.00143">
        <ele>1655.25</ele>
        <time>2018-03-22T09:06:48Z</time>
      </trkpt>
      <trkpt lat="42.97092" lon="-0.00134">
        <ele>1654.6</ele>
        <time>2018-03-22T09:06:55Z</time>
      </trkpt>
      <trkpt lat="42.9709" lon="-0.00107">
        <ele>1651.45</ele>
        <time>2018-03-22T09:07:14Z</time>
      </trkpt>
      <trkpt lat="42.97091" lon="-0.00104">
        <ele>1649.66</ele>
        <time>2018-03-22T09:07:32Z</time>
      </trkpt>
      <trkpt lat="42.97091" lon="-0.00111">
        <ele>1649.41</ele>
        <time>2018-03-22T09:07:50Z</time>
      </trkpt>
      <trkpt lat="42.97092" lon="-0.0012">
        <ele>1650.07</ele>
        <time>2018-03-22T09:08:05Z</time>
      </trkpt>
      <trkpt lat="42.97093" lon="-0.00123">
        <ele>1650.19</ele>
        <time>2018-03-22T09:08:27Z</time>
      </trkpt>
      <trkpt lat="42.97091" lon="-0.00119">
        <ele>1649.61</ele>
        <time>2018-03-22T09:08:47Z</time>
      </trkpt>
      <trkpt lat="42.97092" lon="-0.00117">
        <ele>1648.42</ele>
        <time>2018-03-22T09:09:07Z</time>
      </trkpt>
      <trkpt lat="42.97091" lon="-0.00105">
        <ele>1647.39</ele>
        <time>2018-03-22T09:09:27Z</time>
      </trkpt>
      <trkpt lat="42.97092" lon="-0.00085">
        <ele>1644.93</ele>
        <time>2018-03-22T09:09:47Z</time>
      </trkpt>
      <trkpt lat="42.97093" lon="-0.00079">
        <ele>1644.47</ele>
        <time>2018-03-22T09:10:02Z</time>
      </trkpt>
      <trkpt lat="42.97094" lon="-0.00071">
        <ele>1643.7</ele>
        <time>2018-03-22T09:10:08Z</time>
      </trkpt>
      <trkpt lat="42.97094" lon="-0.00057">
        <ele>1643</ele>
        <time>2018-03-22T09:10:23Z</time>
      </trkpt>
      <trkpt lat="42.97095" lon="-0.0005">
        <ele>1642.76</ele>
        <time>2018-03-22T09:10:40Z</time>
      </trkpt>
      <trkpt lat="42.97095" lon="-0.00051">
        <ele>1642.42</ele>
        <time>2018-03-22T09:10:55Z</time>
      </trkpt>
      <trkpt lat="42.97095" lon="-0.00052">
        <ele>1641.67</ele>
        <time>2018-03-22T09:11:21Z</time>
      </trkpt>
      <trkpt lat="42.97095" lon="-0.0005">
        <ele>1642.01</ele>
        <time>2018-03-22T09:11:37Z</time>
      </trkpt>
      <trkpt lat="42.97095" lon="-0.0004">
        <ele>1641.63</ele>
        <time>2018-03-22T09:11:59Z</time>
      </trkpt>
      <trkpt lat="42.97094" lon="-0.00011">
        <ele>1641.76</ele>
        <time>2018-03-22T09:12:21Z</time>
      </trkpt>
      <trkpt lat="42.97097" lon="0.00018">
        <ele>1639.44</ele>
        <time>2018-03-22T09:12:42Z</time>
      </trkpt>
      <trkpt lat="42.97103" lon="0.00041">
        <ele>1637.53</ele>
        <time>2018-03-22T09:13:00Z</time>
      </trkpt>
      <trkpt lat="42.97103" lon="0.00069">
        <ele>1634.61</ele>
        <time>2018-03-22T09:13:21Z</time>
      </trkpt>
      <trkpt lat="42.97103" lon="0.001">
        <ele>1632.11</ele>
        <time>2018-03-22T09:13:42Z</time>
      </trkpt>
      <trkpt lat="42.97106" lon="0.0013">
        <ele>1630.05</ele>
        <time>2018-03-22T09:14:03Z</time>
      </trkpt>
      <trkpt lat="42.9711" lon="0.00152">
        <ele>1630.69</ele>
        <time>2018-03-22T09:14:21Z</time>
      </trkpt>
      <trkpt lat="42.97117" lon="0.00177">
        <ele>1631.03</ele>
        <time>2018-03-22T09:14:42Z</time>
      </trkpt>
      <trkpt lat="42.97117" lon="0.00202">
        <ele>1630.07</ele>
        <time>2018-03-22T09:15:03Z</time>
      </trkpt>
      <trkpt lat="42.97114" lon="0.00227">
        <ele>1630.45</ele>
        <time>2018-03-22T09:15:26Z</time>
      </trkpt>
      <trkpt lat="42.9711" lon="0.0025">
        <ele>1630.75</ele>
        <time>2018-03-22T09:15:47Z</time>
      </trkpt>
      <trkpt lat="42.97105" lon="0.00267">
        <ele>1631.4</ele>
        <time>2018-03-22T09:16:06Z</time>
      </trkpt>
      <trkpt lat="42.97097" lon="0.00279">
        <ele>1632.84</ele>
        <time>2018-03-22T09:16:27Z</time>
      </trkpt>
      <trkpt lat="42.97092" lon="0.00289">
        <ele>1635.14</ele>
        <time>2018-03-22T09:16:47Z</time>
      </trkpt>
      <trkpt lat="42.97088" lon="0.0029">
        <ele>1637.22</ele>
        <time>2018-03-22T09:17:03Z</time>
      </trkpt>
      <trkpt lat="42.97085" lon="0.0028">
        <ele>1638.29</ele>
        <time>2018-03-22T09:17:19Z</time>
      </trkpt>
      <trkpt lat="42.97082" lon="0.00273">
        <ele>1639.91</ele>
        <time>2018-03-22T09:17:36Z</time>
      </trkpt>
      <trkpt lat="42.97078" lon="0.00286">
        <ele>1641.11</ele>
        <time>2018-03-22T09:17:55Z</time>
      </trkpt>
      <trkpt lat="42.97077" lon="0.00308">
        <ele>1642.48</ele>
        <time>2018-03-22T09:18:18Z</time>
      </trkpt>
      <trkpt lat="42.97071" lon="0.00327">
        <ele>1643.46</ele>
        <time>2018-03-22T09:18:39Z</time>
      </trkpt>
      <trkpt lat="42.97062" lon="0.00343">
        <ele>1644.92</ele>
        <time>2018-03-22T09:19:01Z</time>
      </trkpt>
      <trkpt lat="42.97056" lon="0.00356">
        <ele>1646</ele>
        <time>2018-03-22T09:19:19Z</time>
      </trkpt>
      <trkpt lat="42.97049" lon="0.00371">
        <ele>1647.38</ele>
        <time>2018-03-22T09:19:40Z</time>
      </trkpt>
      <trkpt lat="42.97043" lon="0.00386">
        <ele>1648.64</ele>
        <time>2018-03-22T09:19:59Z</time>
      </trkpt>
      <trkpt lat="42.97035" lon="0.00401">
        <ele>1649.71</ele>
        <time>2018-03-22T09:20:20Z</time>
      </trkpt>
      <trkpt lat="42.97029" lon="0.00415">
        <ele>1651.2</ele>
        <time>2018-03-22T09:20:39Z</time>
      </trkpt>
      <trkpt lat="42.97024" lon="0.00429">
        <ele>1653.44</ele>
        <time>2018-03-22T09:20:59Z</time>
      </trkpt>
      <trkpt lat="42.97019" lon="0.0044">
        <ele>1655.66</ele>
        <time>2018-03-22T09:21:19Z</time>
      </trkpt>
      <trkpt lat="42.97013" lon="0.0045">
        <ele>1658.13</ele>
        <time>2018-03-22T09:21:39Z</time>
      </trkpt>
      <trkpt lat="42.97003" lon="0.00463">
        <ele>1659.37</ele>
        <time>2018-03-22T09:21:59Z</time>
      </trkpt>
      <trkpt lat="42.96995" lon="0.00478">
        <ele>1660.37</ele>
        <time>2018-03-22T09:22:19Z</time>
      </trkpt>
      <trkpt lat="42.96985" lon="0.00494">
        <ele>1661.33</ele>
        <time>2018-03-22T09:22:41Z</time>
      </trkpt>
      <trkpt lat="42.96977" lon="0.00507">
        <ele>1662.25</ele>
        <time>2018-03-22T09:22:58Z</time>
      </trkpt>
      <trkpt lat="42.96969" lon="0.00521">
        <ele>1663.2</ele>
        <time>2018-03-22T09:23:17Z</time>
      </trkpt>
      <trkpt lat="42.96963" lon="0.00534">
        <ele>1665.33</ele>
        <time>2018-03-22T09:23:36Z</time>
      </trkpt>
      <trkpt lat="42.96961" lon="0.0054">
        <ele>1666.14</ele>
        <time>2018-03-22T09:23:50Z</time>
      </trkpt>
      <trkpt lat="42.96962" lon="0.0054">
        <ele>1665.79</ele>
        <time>2018-03-22T09:24:21Z</time>
      </trkpt>
      <trkpt lat="42.96962" lon="0.0054">
        <ele>1664.95</ele>
        <time>2018-03-22T09:24:39Z</time>
      </trkpt>
      <trkpt lat="42.96963" lon="0.0054">
        <ele>1663.75</ele>
        <time>2018-03-22T09:25:17Z</time>
      </trkpt>
      <trkpt lat="42.96963" lon="0.0054">
        <ele>1663.91</ele>
        <time>2018-03-22T09:25:32Z</time>
      </trkpt>
      <trkpt lat="42.96962" lon="0.0054">
        <ele>1663.63</ele>
        <time>2018-03-22T09:25:57Z</time>
      </trkpt>
      <trkpt lat="42.96958" lon="0.00541">
        <ele>1663.39</ele>
        <time>2018-03-22T09:26:15Z</time>
      </trkpt>
      <trkpt lat="42.96951" lon="0.00547">
        <ele>1663.74</ele>
        <time>2018-03-22T09:26:29Z</time>
      </trkpt>
      <trkpt lat="42.96938" lon="0.00557">
        <ele>1663.44</ele>
        <time>2018-03-22T09:26:50Z</time>
      </trkpt>
      <trkpt lat="42.9693" lon="0.00567">
        <ele>1663.85</ele>
        <time>2018-03-22T09:27:08Z</time>
      </trkpt>
      <trkpt lat="42.96923" lon="0.00578">
        <ele>1664.92</ele>
        <time>2018-03-22T09:27:27Z</time>
      </trkpt>
      <trkpt lat="42.96918" lon="0.0059">
        <ele>1665.74</ele>
        <time>2018-03-22T09:27:43Z</time>
      </trkpt>
      <trkpt lat="42.96915" lon="0.00604">
        <ele>1666.15</ele>
        <time>2018-03-22T09:28:01Z</time>
      </trkpt>
      <trkpt lat="42.96913" lon="0.0062">
        <ele>1667.14</ele>
        <time>2018-03-22T09:28:21Z</time>
      </trkpt>
      <trkpt lat="42.96911" lon="0.00636">
        <ele>1668.05</ele>
        <time>2018-03-22T09:28:41Z</time>
      </trkpt>
      <trkpt lat="42.96909" lon="0.0065">
        <ele>1668.87</ele>
        <time>2018-03-22T09:28:59Z</time>
      </trkpt>
      <trkpt lat="42.96908" lon="0.00666">
        <ele>1670</ele>
        <time>2018-03-22T09:29:19Z</time>
      </trkpt>
      <trkpt lat="42.96909" lon="0.00679">
        <ele>1671.21</ele>
        <time>2018-03-22T09:29:37Z</time>
      </trkpt>
      <trkpt lat="42.9691" lon="0.0069">
        <ele>1672.31</ele>
        <time>2018-03-22T09:29:53Z</time>
      </trkpt>
      <trkpt lat="42.96911" lon="0.00703">
        <ele>1673.58</ele>
        <time>2018-03-22T09:30:11Z</time>
      </trkpt>
      <trkpt lat="42.96912" lon="0.0072">
        <ele>1674.11</ele>
        <time>2018-03-22T09:30:30Z</time>
      </trkpt>
      <trkpt lat="42.96913" lon="0.00733">
        <ele>1675.15</ele>
        <time>2018-03-22T09:30:46Z</time>
      </trkpt>
      <trkpt lat="42.9691" lon="0.00743">
        <ele>1676.9</ele>
        <time>2018-03-22T09:31:02Z</time>
      </trkpt>
      <trkpt lat="42.96908" lon="0.00756">
        <ele>1679.12</ele>
        <time>2018-03-22T09:31:20Z</time>
      </trkpt>
      <trkpt lat="42.96907" lon="0.0077">
        <ele>1681.08</ele>
        <time>2018-03-22T09:31:37Z</time>
      </trkpt>
      <trkpt lat="42.96907" lon="0.00785">
        <ele>1682.79</ele>
        <time>2018-03-22T09:31:55Z</time>
      </trkpt>
      <trkpt lat="42.96908" lon="0.00798">
        <ele>1684.78</ele>
        <time>2018-03-22T09:32:14Z</time>
      </trkpt>
      <trkpt lat="42.96908" lon="0.00809">
        <ele>1686.8</ele>
        <time>2018-03-22T09:32:31Z</time>
      </trkpt>
      <trkpt lat="42.96909" lon="0.00825">
        <ele>1689.64</ele>
        <time>2018-03-22T09:32:51Z</time>
      </trkpt>
      <trkpt lat="42.96907" lon="0.0084">
        <ele>1692.38</ele>
        <time>2018-03-22T09:33:10Z</time>
      </trkpt>
      <trkpt lat="42.96903" lon="0.00852">
        <ele>1694.75</ele>
        <time>2018-03-22T09:33:29Z</time>
      </trkpt>
      <trkpt lat="42.96904" lon="0.00851">
        <ele>1694.95</ele>
        <time>2018-03-22T09:33:54Z</time>
      </trkpt>
      <trkpt lat="42.96903" lon="0.00851">
        <ele>1694.79</ele>
        <time>2018-03-22T09:34:23Z</time>
      </trkpt>
      <trkpt lat="42.96904" lon="0.00853">
        <ele>1694.09</ele>
        <time>2018-03-22T09:34:52Z</time>
      </trkpt>
      <trkpt lat="42.96906" lon="0.0088">
        <ele>1694.99</ele>
        <time>2018-03-22T09:35:14Z</time>
      </trkpt>
      <trkpt lat="42.96906" lon="0.00906">
        <ele>1696.15</ele>
        <time>2018-03-22T09:35:38Z</time>
      </trkpt>
      <trkpt lat="42.96907" lon="0.00925">
        <ele>1697.9</ele>
        <time>2018-03-22T09:35:58Z</time>
      </trkpt>
      <trkpt lat="42.96909" lon="0.0094">
        <ele>1699.24</ele>
        <time>2018-03-22T09:36:16Z</time>
      </trkpt>
      <trkpt lat="42.96909" lon="0.00962">
        <ele>1699.11</ele>
        <time>2018-03-22T09:36:35Z</time>
      </trkpt>
      <trkpt lat="42.96913" lon="0.00985">
        <ele>1698.4</ele>
        <time>2018-03-22T09:36:55Z</time>
      </trkpt>
      <trkpt lat="42.96917" lon="0.01005">
        <ele>1698.83</ele>
        <time>2018-03-22T09:37:16Z</time>
      </trkpt>
      <trkpt lat="42.96924" lon="0.01025">
        <ele>1699.62</ele>
        <time>2018-03-22T09:37:36Z</time>
      </trkpt>
      <trkpt lat="42.9693" lon="0.01045">
        <ele>1700.52</ele>
        <time>2018-03-22T09:37:57Z</time>
      </trkpt>
      <trkpt lat="42.96935" lon="0.01066">
        <ele>1701.12</ele>
        <time>2018-03-22T09:38:16Z</time>
      </trkpt>
      <trkpt lat="42.9694" lon="0.01085">
        <ele>1701.75</ele>
        <time>2018-03-22T09:38:35Z</time>
      </trkpt>
      <trkpt lat="42.96946" lon="0.0111">
        <ele>1701.39</ele>
        <time>2018-03-22T09:38:57Z</time>
      </trkpt>
      <trkpt lat="42.96953" lon="0.01136">
        <ele>1699.56</ele>
        <time>2018-03-22T09:39:18Z</time>
      </trkpt>
      <trkpt lat="42.96961" lon="0.0116">
        <ele>1699.6</ele>
        <time>2018-03-22T09:39:42Z</time>
      </trkpt>
      <trkpt lat="42.96965" lon="0.01176">
        <ele>1701.19</ele>
        <time>2018-03-22T09:40:02Z</time>
      </trkpt>
      <trkpt lat="42.96969" lon="0.01192">
        <ele>1703.16</ele>
        <time>2018-03-22T09:40:23Z</time>
      </trkpt>
      <trkpt lat="42.96971" lon="0.01208">
        <ele>1705.32</ele>
        <time>2018-03-22T09:40:49Z</time>
      </trkpt>
      <trkpt lat="42.96973" lon="0.01216">
        <ele>1706.34</ele>
        <time>2018-03-22T09:41:09Z</time>
      </trkpt>
      <trkpt lat="42.96973" lon="0.0122">
        <ele>1707.47</ele>
        <time>2018-03-22T09:41:28Z</time>
      </trkpt>
      <trkpt lat="42.96975" lon="0.01222">
        <ele>1707.69</ele>
        <time>2018-03-22T09:41:44Z</time>
      </trkpt>
      <trkpt lat="42.96976" lon="0.01228">
        <ele>1708.12</ele>
        <time>2018-03-22T09:41:59Z</time>
      </trkpt>
      <trkpt lat="42.96976" lon="0.01235">
        <ele>1708.62</ele>
        <time>2018-03-22T09:42:08Z</time>
      </trkpt>
      <trkpt lat="42.96993" lon="0.01258">
        <ele>1705.53</ele>
        <time>2018-03-22T09:42:28Z</time>
      </trkpt>
      <trkpt lat="42.97001" lon="0.01272">
        <ele>1702.43</ele>
        <time>2018-03-22T09:42:39Z</time>
      </trkpt>
      <trkpt lat="42.97007" lon="0.0129">
        <ele>1699.42</ele>
        <time>2018-03-22T09:42:51Z</time>
      </trkpt>
      <trkpt lat="42.97014" lon="0.01307">
        <ele>1696.2</ele>
        <time>2018-03-22T09:43:03Z</time>
      </trkpt>
      <trkpt lat="42.97021" lon="0.01325">
        <ele>1693.14</ele>
        <time>2018-03-22T09:43:16Z</time>
      </trkpt>
      <trkpt lat="42.97029" lon="0.01338">
        <ele>1690.04</ele>
        <time>2018-03-22T09:43:27Z</time>
      </trkpt>
      <trkpt lat="42.97034" lon="0.01356">
        <ele>1687.02</ele>
        <time>2018-03-22T09:43:43Z</time>
      </trkpt>
      <trkpt lat="42.97038" lon="0.01386">
        <ele>1683.92</ele>
        <time>2018-03-22T09:44:07Z</time>
      </trkpt>
      <trkpt lat="42.97038" lon="0.01409">
        <ele>1680.8</ele>
        <time>2018-03-22T09:44:26Z</time>
      </trkpt>
      <trkpt lat="42.97037" lon="0.01436">
        <ele>1677.81</ele>
        <time>2018-03-22T09:44:48Z</time>
      </trkpt>
      <trkpt lat="42.97037" lon="0.01459">
        <ele>1674.89</ele>
        <time>2018-03-22T09:45:10Z</time>
      </trkpt>
      <trkpt lat="42.97037" lon="0.01476">
        <ele>1671.85</ele>
        <time>2018-03-22T09:45:23Z</time>
      </trkpt>
      <trkpt lat="42.97032" lon="0.0151">
        <ele>1668.88</ele>
        <time>2018-03-22T09:45:48Z</time>
      </trkpt>
      <trkpt lat="42.97023" lon="0.01541">
        <ele>1665.86</ele>
        <time>2018-03-22T09:46:11Z</time>
      </trkpt>
      <trkpt lat="42.97016" lon="0.01557">
        <ele>1662.59</ele>
        <time>2018-03-22T09:46:25Z</time>
      </trkpt>
      <trkpt lat="42.9701" lon="0.0157">
        <ele>1659.45</ele>
        <time>2018-03-22T09:46:37Z</time>
      </trkpt>
      <trkpt lat="42.97006" lon="0.01586">
        <ele>1656.5</ele>
        <time>2018-03-22T09:46:55Z</time>
      </trkpt>
      <trkpt lat="42.97004" lon="0.01612">
        <ele>1653.74</ele>
        <time>2018-03-22T09:47:16Z</time>
      </trkpt>
      <trkpt lat="42.97003" lon="0.0164">
        <ele>1651.26</ele>
        <time>2018-03-22T09:47:38Z</time>
      </trkpt>
      <trkpt lat="42.97" lon="0.01666">
        <ele>1650.51</ele>
        <time>2018-03-22T09:48:00Z</time>
      </trkpt>
      <trkpt lat="42.96992" lon="0.01689">
        <ele>1648.62</ele>
        <time>2018-03-22T09:48:20Z</time>
      </trkpt>
      <trkpt lat="42.9698" lon="0.01712">
        <ele>1647.1</ele>
        <time>2018-03-22T09:48:43Z</time>
      </trkpt>
      <trkpt lat="42.96971" lon="0.01729">
        <ele>1647.25</ele>
        <time>2018-03-22T09:49:00Z</time>
      </trkpt>
      <trkpt lat="42.96962" lon="0.01751">
        <ele>1646.41</ele>
        <time>2018-03-22T09:49:21Z</time>
      </trkpt>
      <trkpt lat="42.96951" lon="0.01772">
        <ele>1644.76</ele>
        <time>2018-03-22T09:49:42Z</time>
      </trkpt>
      <trkpt lat="42.96942" lon="0.01797">
        <ele>1643.35</ele>
        <time>2018-03-22T09:50:04Z</time>
      </trkpt>
      <trkpt lat="42.96932" lon="0.0182">
        <ele>1642.75</ele>
        <time>2018-03-22T09:50:25Z</time>
      </trkpt>
      <trkpt lat="42.96924" lon="0.01846">
        <ele>1641.18</ele>
        <time>2018-03-22T09:50:48Z</time>
      </trkpt>
      <trkpt lat="42.96919" lon="0.01861">
        <ele>1640.65</ele>
        <time>2018-03-22T09:51:01Z</time>
      </trkpt>
      <trkpt lat="42.96906" lon="0.0188">
        <ele>1638.6</ele>
        <time>2018-03-22T09:51:22Z</time>
      </trkpt>
      <trkpt lat="42.96898" lon="0.01903">
        <ele>1637.61</ele>
        <time>2018-03-22T09:51:42Z</time>
      </trkpt>
      <trkpt lat="42.9689" lon="0.01919">
        <ele>1636.92</ele>
        <time>2018-03-22T09:52:00Z</time>
      </trkpt>
      <trkpt lat="42.9688" lon="0.01936">
        <ele>1635.8</ele>
        <time>2018-03-22T09:52:19Z</time>
      </trkpt>
      <trkpt lat="42.96873" lon="0.01953">
        <ele>1634.76</ele>
        <time>2018-03-22T09:52:38Z</time>
      </trkpt>
      <trkpt lat="42.96866" lon="0.01969">
        <ele>1635.19</ele>
        <time>2018-03-22T09:52:58Z</time>
      </trkpt>
      <trkpt lat="42.96859" lon="0.01983">
        <ele>1635.99</ele>
        <time>2018-03-22T09:53:17Z</time>
      </trkpt>
      <trkpt lat="42.96852" lon="0.01996">
        <ele>1636.56</ele>
        <time>2018-03-22T09:53:34Z</time>
      </trkpt>
      <trkpt lat="42.96845" lon="0.02013">
        <ele>1636.23</ele>
        <time>2018-03-22T09:53:53Z</time>
      </trkpt>
      <trkpt lat="42.96833" lon="0.02019">
        <ele>1636.21</ele>
        <time>2018-03-22T09:54:11Z</time>
      </trkpt>
      <trkpt lat="42.96819" lon="0.02029">
        <ele>1634.33</ele>
        <time>2018-03-22T09:54:30Z</time>
      </trkpt>
      <trkpt lat="42.96809" lon="0.0204">
        <ele>1631.27</ele>
        <time>2018-03-22T09:54:47Z</time>
      </trkpt>
      <trkpt lat="42.96802" lon="0.02049">
        <ele>1628.24</ele>
        <time>2018-03-22T09:55:00Z</time>
      </trkpt>
      <trkpt lat="42.96796" lon="0.02063">
        <ele>1625.13</ele>
        <time>2018-03-22T09:55:16Z</time>
      </trkpt>
      <trkpt lat="42.96787" lon="0.0208">
        <ele>1622.07</ele>
        <time>2018-03-22T09:55:34Z</time>
      </trkpt>
      <trkpt lat="42.96782" lon="0.02094">
        <ele>1619.01</ele>
        <time>2018-03-22T09:55:47Z</time>
      </trkpt>
      <trkpt lat="42.96775" lon="0.02111">
        <ele>1615.98</ele>
        <time>2018-03-22T09:56:04Z</time>
      </trkpt>
      <trkpt lat="42.9677" lon="0.02136">
        <ele>1613.32</ele>
        <time>2018-03-22T09:56:25Z</time>
      </trkpt>
      <trkpt lat="42.96766" lon="0.02147">
        <ele>1613.21</ele>
        <time>2018-03-22T09:56:35Z</time>
      </trkpt>
      <trkpt lat="42.9676" lon="0.02178">
        <ele>1611.13</ele>
        <time>2018-03-22T09:57:00Z</time>
      </trkpt>
      <trkpt lat="42.96754" lon="0.02202">
        <ele>1610.99</ele>
        <time>2018-03-22T09:57:22Z</time>
      </trkpt>
      <trkpt lat="42.96746" lon="0.02225">
        <ele>1609.85</ele>
        <time>2018-03-22T09:57:44Z</time>
      </trkpt>
      <trkpt lat="42.96739" lon="0.02248">
        <ele>1607.93</ele>
        <time>2018-03-22T09:58:05Z</time>
      </trkpt>
      <trkpt lat="42.96737" lon="0.02273">
        <ele>1607.62</ele>
        <time>2018-03-22T09:58:26Z</time>
      </trkpt>
      <trkpt lat="42.96735" lon="0.02291">
        <ele>1608.94</ele>
        <time>2018-03-22T09:58:45Z</time>
      </trkpt>
      <trkpt lat="42.96728" lon="0.0231">
        <ele>1609.62</ele>
        <time>2018-03-22T09:59:07Z</time>
      </trkpt>
      <trkpt lat="42.96727" lon="0.02328">
        <ele>1610.39</ele>
        <time>2018-03-22T09:59:26Z</time>
      </trkpt>
      <trkpt lat="42.96726" lon="0.02339">
        <ele>1611.55</ele>
        <time>2018-03-22T09:59:41Z</time>
      </trkpt>
      <trkpt lat="42.96725" lon="0.02351">
        <ele>1613.56</ele>
        <time>2018-03-22T09:59:59Z</time>
      </trkpt>
      <trkpt lat="42.96723" lon="0.02362">
        <ele>1614.9</ele>
        <time>2018-03-22T10:00:15Z</time>
      </trkpt>
      <trkpt lat="42.96721" lon="0.02376">
        <ele>1616.35</ele>
        <time>2018-03-22T10:00:33Z</time>
      </trkpt>
      <trkpt lat="42.96718" lon="0.02389">
        <ele>1617.78</ele>
        <time>2018-03-22T10:00:50Z</time>
      </trkpt>
      <trkpt lat="42.96717" lon="0.02401">
        <ele>1618.55</ele>
        <time>2018-03-22T10:01:05Z</time>
      </trkpt>
      <trkpt lat="42.96715" lon="0.02411">
        <ele>1619.54</ele>
        <time>2018-03-22T10:01:20Z</time>
      </trkpt>
      <trkpt lat="42.96714" lon="0.02426">
        <ele>1620.51</ele>
        <time>2018-03-22T10:01:37Z</time>
      </trkpt>
      <trkpt lat="42.96713" lon="0.02444">
        <ele>1622.18</ele>
        <time>2018-03-22T10:01:55Z</time>
      </trkpt>
      <trkpt lat="42.96712" lon="0.02461">
        <ele>1623.59</ele>
        <time>2018-03-22T10:02:15Z</time>
      </trkpt>
      <trkpt lat="42.9671" lon="0.02481">
        <ele>1624.52</ele>
        <time>2018-03-22T10:02:35Z</time>
      </trkpt>
      <trkpt lat="42.96707" lon="0.02501">
        <ele>1626.22</ele>
        <time>2018-03-22T10:02:55Z</time>
      </trkpt>
      <trkpt lat="42.96704" lon="0.02522">
        <ele>1627.56</ele>
        <time>2018-03-22T10:03:14Z</time>
      </trkpt>
      <trkpt lat="42.96701" lon="0.02542">
        <ele>1628.77</ele>
        <time>2018-03-22T10:03:34Z</time>
      </trkpt>
      <trkpt lat="42.96696" lon="0.02562">
        <ele>1629.61</ele>
        <time>2018-03-22T10:03:54Z</time>
      </trkpt>
      <trkpt lat="42.96692" lon="0.02583">
        <ele>1630.85</ele>
        <time>2018-03-22T10:04:16Z</time>
      </trkpt>
      <trkpt lat="42.9669" lon="0.02594">
        <ele>1631.75</ele>
        <time>2018-03-22T10:04:34Z</time>
      </trkpt>
      <trkpt lat="42.96688" lon="0.02606">
        <ele>1632.88</ele>
        <time>2018-03-22T10:04:54Z</time>
      </trkpt>
      <trkpt lat="42.96688" lon="0.02606">
        <ele>1633.27</ele>
        <time>2018-03-22T10:05:28Z</time>
      </trkpt>
      <trkpt lat="42.96688" lon="0.02605">
        <ele>1633.07</ele>
        <time>2018-03-22T10:05:55Z</time>
      </trkpt>
      <trkpt lat="42.96689" lon="0.02605">
        <ele>1632.82</ele>
        <time>2018-03-22T10:06:16Z</time>
      </trkpt>
      <trkpt lat="42.96687" lon="0.02606">
        <ele>1632.97</ele>
        <time>2018-03-22T10:06:57Z</time>
      </trkpt>
      <trkpt lat="42.96688" lon="0.02611">
        <ele>1633.16</ele>
        <time>2018-03-22T10:07:28Z</time>
      </trkpt>
      <trkpt lat="42.96688" lon="0.02612">
        <ele>1633.45</ele>
        <time>2018-03-22T10:07:43Z</time>
      </trkpt>
      <trkpt lat="42.96687" lon="0.02613">
        <ele>1633.86</ele>
        <time>2018-03-22T10:08:38Z</time>
      </trkpt>
      <trkpt lat="42.96688" lon="0.02613">
        <ele>1634.03</ele>
        <time>2018-03-22T10:09:10Z</time>
      </trkpt>
      <trkpt lat="42.96688" lon="0.02613">
        <ele>1634.14</ele>
        <time>2018-03-22T10:09:48Z</time>
      </trkpt>
      <trkpt lat="42.96688" lon="0.02613">
        <ele>1633.76</ele>
        <time>2018-03-22T10:10:48Z</time>
      </trkpt>
      <trkpt lat="42.96684" lon="0.02628">
        <ele>1634.58</ele>
        <time>2018-03-22T10:11:18Z</time>
      </trkpt>
      <trkpt lat="42.96681" lon="0.02647">
        <ele>1636.72</ele>
        <time>2018-03-22T10:11:38Z</time>
      </trkpt>
      <trkpt lat="42.96678" lon="0.02662">
        <ele>1638.71</ele>
        <time>2018-03-22T10:11:57Z</time>
      </trkpt>
      <trkpt lat="42.96676" lon="0.02675">
        <ele>1640.72</ele>
        <time>2018-03-22T10:12:15Z</time>
      </trkpt>
      <trkpt lat="42.96672" lon="0.02685">
        <ele>1642.53</ele>
        <time>2018-03-22T10:12:31Z</time>
      </trkpt>
      <trkpt lat="42.96673" lon="0.02697">
        <ele>1644.34</ele>
        <time>2018-03-22T10:12:49Z</time>
      </trkpt>
      <trkpt lat="42.9667" lon="0.02708">
        <ele>1646.43</ele>
        <time>2018-03-22T10:13:07Z</time>
      </trkpt>
      <trkpt lat="42.96668" lon="0.02715">
        <ele>1648.7</ele>
        <time>2018-03-22T10:13:22Z</time>
      </trkpt>
      <trkpt lat="42.96667" lon="0.02722">
        <ele>1650.31</ele>
        <time>2018-03-22T10:13:39Z</time>
      </trkpt>
      <trkpt lat="42.96664" lon="0.02732">
        <ele>1652.23</ele>
        <time>2018-03-22T10:13:58Z</time>
      </trkpt>
      <trkpt lat="42.9666" lon="0.02741">
        <ele>1655.28</ele>
        <time>2018-03-22T10:14:17Z</time>
      </trkpt>
      <trkpt lat="42.96656" lon="0.02752">
        <ele>1658.1</ele>
        <time>2018-03-22T10:14:38Z</time>
      </trkpt>
      <trkpt lat="42.9665" lon="0.02762">
        <ele>1660.03</ele>
        <time>2018-03-22T10:14:57Z</time>
      </trkpt>
      <trkpt lat="42.96647" lon="0.02774">
        <ele>1662.33</ele>
        <time>2018-03-22T10:15:15Z</time>
      </trkpt>
      <trkpt lat="42.96646" lon="0.02788">
        <ele>1664.24</ele>
        <time>2018-03-22T10:15:32Z</time>
      </trkpt>
      <trkpt lat="42.96645" lon="0.02803">
        <ele>1665.61</ele>
        <time>2018-03-22T10:15:50Z</time>
      </trkpt>
      <trkpt lat="42.96645" lon="0.02817">
        <ele>1667.28</ele>
        <time>2018-03-22T10:16:08Z</time>
      </trkpt>
      <trkpt lat="42.96644" lon="0.02831">
        <ele>1669.03</ele>
        <time>2018-03-22T10:16:26Z</time>
      </trkpt>
      <trkpt lat="42.96644" lon="0.02843">
        <ele>1670.88</ele>
        <time>2018-03-22T10:16:43Z</time>
      </trkpt>
      <trkpt lat="42.96644" lon="0.02854">
        <ele>1672.8</ele>
        <time>2018-03-22T10:17:00Z</time>
      </trkpt>
      <trkpt lat="42.96644" lon="0.02866">
        <ele>1674.7</ele>
        <time>2018-03-22T10:17:18Z</time>
      </trkpt>
      <trkpt lat="42.96642" lon="0.02876">
        <ele>1677.22</ele>
        <time>2018-03-22T10:17:34Z</time>
      </trkpt>
      <trkpt lat="42.96644" lon="0.02884">
        <ele>1679.46</ele>
        <time>2018-03-22T10:17:49Z</time>
      </trkpt>
      <trkpt lat="42.96642" lon="0.02893">
        <ele>1681.95</ele>
        <time>2018-03-22T10:18:07Z</time>
      </trkpt>
      <trkpt lat="42.96645" lon="0.02904">
        <ele>1684.62</ele>
        <time>2018-03-22T10:18:26Z</time>
      </trkpt>
      <trkpt lat="42.96643" lon="0.02913">
        <ele>1686.69</ele>
        <time>2018-03-22T10:18:42Z</time>
      </trkpt>
      <trkpt lat="42.96639" lon="0.02923">
        <ele>1689.21</ele>
        <time>2018-03-22T10:18:57Z</time>
      </trkpt>
      <trkpt lat="42.96633" lon="0.02937">
        <ele>1690.95</ele>
        <time>2018-03-22T10:19:15Z</time>
      </trkpt>
      <trkpt lat="42.96625" lon="0.02952">
        <ele>1691.57</ele>
        <time>2018-03-22T10:19:32Z</time>
      </trkpt>
      <trkpt lat="42.96619" lon="0.02969">
        <ele>1692.27</ele>
        <time>2018-03-22T10:19:51Z</time>
      </trkpt>
      <trkpt lat="42.96615" lon="0.02983">
        <ele>1693.21</ele>
        <time>2018-03-22T10:20:08Z</time>
      </trkpt>
      <trkpt lat="42.96612" lon="0.03">
        <ele>1694.64</ele>
        <time>2018-03-22T10:20:26Z</time>
      </trkpt>
      <trkpt lat="42.96609" lon="0.03015">
        <ele>1695.69</ele>
        <time>2018-03-22T10:20:43Z</time>
      </trkpt>
      <trkpt lat="42.9661" lon="0.03029">
        <ele>1698.05</ele>
        <time>2018-03-22T10:21:01Z</time>
      </trkpt>
      <trkpt lat="42.96611" lon="0.03042">
        <ele>1700.44</ele>
        <time>2018-03-22T10:21:19Z</time>
      </trkpt>
      <trkpt lat="42.96612" lon="0.03047">
        <ele>1701.08</ele>
        <time>2018-03-22T10:21:35Z</time>
      </trkpt>
      <trkpt lat="42.96615" lon="0.03058">
        <ele>1703.87</ele>
        <time>2018-03-22T10:21:56Z</time>
      </trkpt>
      <trkpt lat="42.96622" lon="0.03064">
        <ele>1706.21</ele>
        <time>2018-03-22T10:22:12Z</time>
      </trkpt>
      <trkpt lat="42.96628" lon="0.0307">
        <ele>1708.84</ele>
        <time>2018-03-22T10:22:30Z</time>
      </trkpt>
      <trkpt lat="42.96628" lon="0.03082">
        <ele>1711.02</ele>
        <time>2018-03-22T10:22:46Z</time>
      </trkpt>
      <trkpt lat="42.96628" lon="0.03087">
        <ele>1712.8</ele>
        <time>2018-03-22T10:23:04Z</time>
      </trkpt>
      <trkpt lat="42.96629" lon="0.03096">
        <ele>1714.24</ele>
        <time>2018-03-22T10:23:25Z</time>
      </trkpt>
      <trkpt lat="42.96632" lon="0.03101">
        <ele>1715.95</ele>
        <time>2018-03-22T10:23:42Z</time>
      </trkpt>
      <trkpt lat="42.96632" lon="0.03102">
        <ele>1716.17</ele>
        <time>2018-03-22T10:24:05Z</time>
      </trkpt>
      <trkpt lat="42.96634" lon="0.0311">
        <ele>1717.06</ele>
        <time>2018-03-22T10:24:23Z</time>
      </trkpt>
      <trkpt lat="42.96635" lon="0.03123">
        <ele>1719.82</ele>
        <time>2018-03-22T10:24:43Z</time>
      </trkpt>
      <trkpt lat="42.96631" lon="0.03133">
        <ele>1722.65</ele>
        <time>2018-03-22T10:25:00Z</time>
      </trkpt>
      <trkpt lat="42.96631" lon="0.03143">
        <ele>1724.93</ele>
        <time>2018-03-22T10:25:16Z</time>
      </trkpt>
      <trkpt lat="42.96631" lon="0.03153">
        <ele>1727.13</ele>
        <time>2018-03-22T10:25:33Z</time>
      </trkpt>
      <trkpt lat="42.96633" lon="0.03167">
        <ele>1729.67</ele>
        <time>2018-03-22T10:25:55Z</time>
      </trkpt>
      <trkpt lat="42.96631" lon="0.03174">
        <ele>1731.86</ele>
        <time>2018-03-22T10:26:13Z</time>
      </trkpt>
      <trkpt lat="42.96631" lon="0.03171">
        <ele>1732.72</ele>
        <time>2018-03-22T10:26:34Z</time>
      </trkpt>
      <trkpt lat="42.96629" lon="0.03173">
        <ele>1732.8</ele>
        <time>2018-03-22T10:26:55Z</time>
      </trkpt>
      <trkpt lat="42.96623" lon="0.03172">
        <ele>1734.89</ele>
        <time>2018-03-22T10:27:13Z</time>
      </trkpt>
      <trkpt lat="42.96622" lon="0.03183">
        <ele>1736.88</ele>
        <time>2018-03-22T10:27:30Z</time>
      </trkpt>
      <trkpt lat="42.96622" lon="0.03189">
        <ele>1737.87</ele>
        <time>2018-03-22T10:27:43Z</time>
      </trkpt>
      <trkpt lat="42.96622" lon="0.03198">
        <ele>1739.65</ele>
        <time>2018-03-22T10:28:00Z</time>
      </trkpt>
      <trkpt lat="42.96622" lon="0.03205">
        <ele>1741.24</ele>
        <time>2018-03-22T10:28:16Z</time>
      </trkpt>
      <trkpt lat="42.96623" lon="0.0321">
        <ele>1742.63</ele>
        <time>2018-03-22T10:28:29Z</time>
      </trkpt>
      <trkpt lat="42.96624" lon="0.03215">
        <ele>1744.08</ele>
        <time>2018-03-22T10:28:43Z</time>
      </trkpt>
      <trkpt lat="42.96624" lon="0.03223">
        <ele>1746.08</ele>
        <time>2018-03-22T10:29:03Z</time>
      </trkpt>
      <trkpt lat="42.9662" lon="0.03221">
        <ele>1747.69</ele>
        <time>2018-03-22T10:29:16Z</time>
      </trkpt>
      <trkpt lat="42.96614" lon="0.03219">
        <ele>1749.33</ele>
        <time>2018-03-22T10:29:32Z</time>
      </trkpt>
      <trkpt lat="42.96604" lon="0.03216">
        <ele>1751.53</ele>
        <time>2018-03-22T10:29:51Z</time>
      </trkpt>
      <trkpt lat="42.96596" lon="0.03212">
        <ele>1753.57</ele>
        <time>2018-03-22T10:30:10Z</time>
      </trkpt>
      <trkpt lat="42.96589" lon="0.03207">
        <ele>1756.38</ele>
        <time>2018-03-22T10:30:30Z</time>
      </trkpt>
      <trkpt lat="42.96578" lon="0.03199">
        <ele>1759.44</ele>
        <time>2018-03-22T10:30:58Z</time>
      </trkpt>
      <trkpt lat="42.96572" lon="0.03195">
        <ele>1761.12</ele>
        <time>2018-03-22T10:31:14Z</time>
      </trkpt>
      <trkpt lat="42.96567" lon="0.03191">
        <ele>1762.88</ele>
        <time>2018-03-22T10:31:29Z</time>
      </trkpt>
      <trkpt lat="42.96561" lon="0.03193">
        <ele>1764.68</ele>
        <time>2018-03-22T10:31:45Z</time>
      </trkpt>
      <trkpt lat="42.96561" lon="0.03194">
        <ele>1766.09</ele>
        <time>2018-03-22T10:32:12Z</time>
      </trkpt>
      <trkpt lat="42.96559" lon="0.03206">
        <ele>1767.09</ele>
        <time>2018-03-22T10:32:33Z</time>
      </trkpt>
      <trkpt lat="42.96556" lon="0.03209">
        <ele>1768.74</ele>
        <time>2018-03-22T10:32:47Z</time>
      </trkpt>
      <trkpt lat="42.96551" lon="0.03206">
        <ele>1770.81</ele>
        <time>2018-03-22T10:33:04Z</time>
      </trkpt>
      <trkpt lat="42.96547" lon="0.03202">
        <ele>1772.38</ele>
        <time>2018-03-22T10:33:19Z</time>
      </trkpt>
      <trkpt lat="42.9654" lon="0.03199">
        <ele>1774.36</ele>
        <time>2018-03-22T10:33:47Z</time>
      </trkpt>
      <trkpt lat="42.96535" lon="0.03197">
        <ele>1776</ele>
        <time>2018-03-22T10:34:00Z</time>
      </trkpt>
      <trkpt lat="42.96535" lon="0.03205">
        <ele>1777.63</ele>
        <time>2018-03-22T10:34:14Z</time>
      </trkpt>
      <trkpt lat="42.96535" lon="0.03212">
        <ele>1779.06</ele>
        <time>2018-03-22T10:34:31Z</time>
      </trkpt>
      <trkpt lat="42.96536" lon="0.0322">
        <ele>1780.76</ele>
        <time>2018-03-22T10:34:47Z</time>
      </trkpt>
      <trkpt lat="42.96536" lon="0.03221">
        <ele>1781.43</ele>
        <time>2018-03-22T10:35:11Z</time>
      </trkpt>
      <trkpt lat="42.96537" lon="0.03227">
        <ele>1782.05</ele>
        <time>2018-03-22T10:35:31Z</time>
      </trkpt>
      <trkpt lat="42.96538" lon="0.03233">
        <ele>1783.72</ele>
        <time>2018-03-22T10:35:46Z</time>
      </trkpt>
      <trkpt lat="42.96538" lon="0.03234">
        <ele>1784.64</ele>
        <time>2018-03-22T10:36:04Z</time>
      </trkpt>
      <trkpt lat="42.96536" lon="0.03233">
        <ele>1785.03</ele>
        <time>2018-03-22T10:36:30Z</time>
      </trkpt>
      <trkpt lat="42.96529" lon="0.03231">
        <ele>1787.5</ele>
        <time>2018-03-22T10:36:49Z</time>
      </trkpt>
      <trkpt lat="42.96523" lon="0.03239">
        <ele>1790.24</ele>
        <time>2018-03-22T10:37:09Z</time>
      </trkpt>
      <trkpt lat="42.96523" lon="0.03243">
        <ele>1791.95</ele>
        <time>2018-03-22T10:37:35Z</time>
      </trkpt>
      <trkpt lat="42.96523" lon="0.03244">
        <ele>1791.27</ele>
        <time>2018-03-22T10:37:48Z</time>
      </trkpt>
      <trkpt lat="42.96524" lon="0.03242">
        <ele>1790.74</ele>
        <time>2018-03-22T10:38:19Z</time>
      </trkpt>
      <trkpt lat="42.96521" lon="0.0324">
        <ele>1790.92</ele>
        <time>2018-03-22T10:38:48Z</time>
      </trkpt>
      <trkpt lat="42.9652" lon="0.03246">
        <ele>1790.99</ele>
        <time>2018-03-22T10:39:22Z</time>
      </trkpt>
      <trkpt lat="42.96523" lon="0.03243">
        <ele>1790.83</ele>
        <time>2018-03-22T10:39:49Z</time>
      </trkpt>
      <trkpt lat="42.96523" lon="0.03246">
        <ele>1791.73</ele>
        <time>2018-03-22T10:40:08Z</time>
      </trkpt>
      <trkpt lat="42.96526" lon="0.03255">
        <ele>1792.92</ele>
        <time>2018-03-22T10:40:23Z</time>
      </trkpt>
      <trkpt lat="42.96529" lon="0.03261">
        <ele>1794.41</ele>
        <time>2018-03-22T10:40:36Z</time>
      </trkpt>
      <trkpt lat="42.96534" lon="0.0327">
        <ele>1796.89</ele>
        <time>2018-03-22T10:40:56Z</time>
      </trkpt>
      <trkpt lat="42.96538" lon="0.0328">
        <ele>1799.07</ele>
        <time>2018-03-22T10:41:16Z</time>
      </trkpt>
      <trkpt lat="42.96541" lon="0.03288">
        <ele>1800.7</ele>
        <time>2018-03-22T10:41:30Z</time>
      </trkpt>
      <trkpt lat="42.96543" lon="0.03297">
        <ele>1802.54</ele>
        <time>2018-03-22T10:41:47Z</time>
      </trkpt>
      <trkpt lat="42.96534" lon="0.033">
        <ele>1805.5</ele>
        <time>2018-03-22T10:42:10Z</time>
      </trkpt>
      <trkpt lat="42.96528" lon="0.03303">
        <ele>1807.25</ele>
        <time>2018-03-22T10:42:27Z</time>
      </trkpt>
      <trkpt lat="42.96528" lon="0.03311">
        <ele>1810.12</ele>
        <time>2018-03-22T10:42:49Z</time>
      </trkpt>
      <trkpt lat="42.96532" lon="0.03316">
        <ele>1811.6</ele>
        <time>2018-03-22T10:43:08Z</time>
      </trkpt>
      <trkpt lat="42.96537" lon="0.03324">
        <ele>1813.89</ele>
        <time>2018-03-22T10:43:27Z</time>
      </trkpt>
      <trkpt lat="42.96536" lon="0.03326">
        <ele>1814.97</ele>
        <time>2018-03-22T10:43:41Z</time>
      </trkpt>
      <trkpt lat="42.96528" lon="0.0333">
        <ele>1817.26</ele>
        <time>2018-03-22T10:44:04Z</time>
      </trkpt>
      <trkpt lat="42.96524" lon="0.03333">
        <ele>1818.99</ele>
        <time>2018-03-22T10:44:21Z</time>
      </trkpt>
      <trkpt lat="42.96528" lon="0.03339">
        <ele>1821.29</ele>
        <time>2018-03-22T10:44:40Z</time>
      </trkpt>
      <trkpt lat="42.96531" lon="0.03343">
        <ele>1822.76</ele>
        <time>2018-03-22T10:44:59Z</time>
      </trkpt>
      <trkpt lat="42.96529" lon="0.03346">
        <ele>1823.79</ele>
        <time>2018-03-22T10:45:16Z</time>
      </trkpt>
      <trkpt lat="42.96526" lon="0.03348">
        <ele>1825.83</ele>
        <time>2018-03-22T10:45:39Z</time>
      </trkpt>
      <trkpt lat="42.96521" lon="0.03351">
        <ele>1826.88</ele>
        <time>2018-03-22T10:45:56Z</time>
      </trkpt>
      <trkpt lat="42.96521" lon="0.03357">
        <ele>1828.96</ele>
        <time>2018-03-22T10:46:11Z</time>
      </trkpt>
      <trkpt lat="42.96528" lon="0.03362">
        <ele>1831.15</ele>
        <time>2018-03-22T10:46:34Z</time>
      </trkpt>
      <trkpt lat="42.96527" lon="0.03366">
        <ele>1832.63</ele>
        <time>2018-03-22T10:46:48Z</time>
      </trkpt>
      <trkpt lat="42.96523" lon="0.0337">
        <ele>1834.04</ele>
        <time>2018-03-22T10:47:02Z</time>
      </trkpt>
      <trkpt lat="42.96519" lon="0.03373">
        <ele>1835.25</ele>
        <time>2018-03-22T10:47:17Z</time>
      </trkpt>
      <trkpt lat="42.96517" lon="0.03375">
        <ele>1836.54</ele>
        <time>2018-03-22T10:47:34Z</time>
      </trkpt>
      <trkpt lat="42.96521" lon="0.03379">
        <ele>1837.46</ele>
        <time>2018-03-22T10:47:52Z</time>
      </trkpt>
      <trkpt lat="42.96522" lon="0.0338">
        <ele>1838.6</ele>
        <time>2018-03-22T10:48:14Z</time>
      </trkpt>
      <trkpt lat="42.96526" lon="0.03382">
        <ele>1839.33</ele>
        <time>2018-03-22T10:48:37Z</time>
      </trkpt>
      <trkpt lat="42.96532" lon="0.03387">
        <ele>1841.37</ele>
        <time>2018-03-22T10:48:55Z</time>
      </trkpt>
      <trkpt lat="42.96539" lon="0.03393">
        <ele>1843.96</ele>
        <time>2018-03-22T10:49:19Z</time>
      </trkpt>
      <trkpt lat="42.96542" lon="0.03395">
        <ele>1845.45</ele>
        <time>2018-03-22T10:49:39Z</time>
      </trkpt>
      <trkpt lat="42.96547" lon="0.034">
        <ele>1846.25</ele>
        <time>2018-03-22T10:50:00Z</time>
      </trkpt>
      <trkpt lat="42.96551" lon="0.03408">
        <ele>1848.48</ele>
        <time>2018-03-22T10:50:20Z</time>
      </trkpt>
      <trkpt lat="42.96552" lon="0.03409">
        <ele>1849.83</ele>
        <time>2018-03-22T10:50:41Z</time>
      </trkpt>
      <trkpt lat="42.96547" lon="0.03411">
        <ele>1850.86</ele>
        <time>2018-03-22T10:50:55Z</time>
      </trkpt>
      <trkpt lat="42.96542" lon="0.03414">
        <ele>1853.55</ele>
        <time>2018-03-22T10:51:20Z</time>
      </trkpt>
      <trkpt lat="42.96536" lon="0.03418">
        <ele>1854.99</ele>
        <time>2018-03-22T10:51:50Z</time>
      </trkpt>
      <trkpt lat="42.96541" lon="0.03425">
        <ele>1857.5</ele>
        <time>2018-03-22T10:52:10Z</time>
      </trkpt>
      <trkpt lat="42.96545" lon="0.03432">
        <ele>1859.44</ele>
        <time>2018-03-22T10:52:29Z</time>
      </trkpt>
      <trkpt lat="42.96546" lon="0.03439">
        <ele>1860.69</ele>
        <time>2018-03-22T10:53:03Z</time>
      </trkpt>
      <trkpt lat="42.96541" lon="0.03442">
        <ele>1863.32</ele>
        <time>2018-03-22T10:53:22Z</time>
      </trkpt>
      <trkpt lat="42.96538" lon="0.03441">
        <ele>1865.09</ele>
        <time>2018-03-22T10:53:53Z</time>
      </trkpt>
      <trkpt lat="42.96537" lon="0.03445">
        <ele>1865.57</ele>
        <time>2018-03-22T10:54:16Z</time>
      </trkpt>
      <trkpt lat="42.96541" lon="0.03456">
        <ele>1868.75</ele>
        <time>2018-03-22T10:54:37Z</time>
      </trkpt>
      <trkpt lat="42.96541" lon="0.0346">
        <ele>1870.44</ele>
        <time>2018-03-22T10:55:01Z</time>
      </trkpt>
      <trkpt lat="42.96535" lon="0.03461">
        <ele>1871.07</ele>
        <time>2018-03-22T10:55:17Z</time>
      </trkpt>
      <trkpt lat="42.96528" lon="0.03462">
        <ele>1874.06</ele>
        <time>2018-03-22T10:55:37Z</time>
      </trkpt>
      <trkpt lat="42.96522" lon="0.03463">
        <ele>1876.01</ele>
        <time>2018-03-22T10:56:05Z</time>
      </trkpt>
      <trkpt lat="42.96519" lon="0.03464">
        <ele>1877.88</ele>
        <time>2018-03-22T10:56:33Z</time>
      </trkpt>
      <trkpt lat="42.96512" lon="0.03465">
        <ele>1879.17</ele>
        <time>2018-03-22T10:57:01Z</time>
      </trkpt>
      <trkpt lat="42.96514" lon="0.03472">
        <ele>1881.14</ele>
        <time>2018-03-22T10:57:15Z</time>
      </trkpt>
      <trkpt lat="42.96518" lon="0.03483">
        <ele>1883.22</ele>
        <time>2018-03-22T10:57:34Z</time>
      </trkpt>
      <trkpt lat="42.96519" lon="0.03489">
        <ele>1885.29</ele>
        <time>2018-03-22T10:57:55Z</time>
      </trkpt>
      <trkpt lat="42.96518" lon="0.03489">
        <ele>1885.63</ele>
        <time>2018-03-22T10:58:28Z</time>
      </trkpt>
      <trkpt lat="42.96511" lon="0.03489">
        <ele>1886.45</ele>
        <time>2018-03-22T10:58:48Z</time>
      </trkpt>
      <trkpt lat="42.96502" lon="0.0349">
        <ele>1889.17</ele>
        <time>2018-03-22T10:59:10Z</time>
      </trkpt>
      <trkpt lat="42.96498" lon="0.03494">
        <ele>1891.57</ele>
        <time>2018-03-22T10:59:28Z</time>
      </trkpt>
      <trkpt lat="42.96501" lon="0.03502">
        <ele>1892.83</ele>
        <time>2018-03-22T10:59:54Z</time>
      </trkpt>
      <trkpt lat="42.96496" lon="0.03505">
        <ele>1894.87</ele>
        <time>2018-03-22T11:00:12Z</time>
      </trkpt>
      <trkpt lat="42.96491" lon="0.03505">
        <ele>1897.09</ele>
        <time>2018-03-22T11:00:32Z</time>
      </trkpt>
      <trkpt lat="42.96488" lon="0.03506">
        <ele>1897.31</ele>
        <time>2018-03-22T11:01:02Z</time>
      </trkpt>
      <trkpt lat="42.96487" lon="0.03513">
        <ele>1898.63</ele>
        <time>2018-03-22T11:01:16Z</time>
      </trkpt>
      <trkpt lat="42.9649" lon="0.03523">
        <ele>1900.98</ele>
        <time>2018-03-22T11:01:33Z</time>
      </trkpt>
      <trkpt lat="42.96495" lon="0.03534">
        <ele>1903.42</ele>
        <time>2018-03-22T11:01:54Z</time>
      </trkpt>
      <trkpt lat="42.96499" lon="0.03546">
        <ele>1905.85</ele>
        <time>2018-03-22T11:02:17Z</time>
      </trkpt>
      <trkpt lat="42.96502" lon="0.03555">
        <ele>1907.37</ele>
        <time>2018-03-22T11:02:33Z</time>
      </trkpt>
      <trkpt lat="42.96506" lon="0.03564">
        <ele>1908.95</ele>
        <time>2018-03-22T11:02:52Z</time>
      </trkpt>
      <trkpt lat="42.96508" lon="0.03568">
        <ele>1910.36</ele>
        <time>2018-03-22T11:03:11Z</time>
      </trkpt>
      <trkpt lat="42.9651" lon="0.03573">
        <ele>1911.02</ele>
        <time>2018-03-22T11:03:35Z</time>
      </trkpt>
      <trkpt lat="42.96504" lon="0.03576">
        <ele>1912.46</ele>
        <time>2018-03-22T11:03:49Z</time>
      </trkpt>
      <trkpt lat="42.96499" lon="0.03576">
        <ele>1914.33</ele>
        <time>2018-03-22T11:04:11Z</time>
      </trkpt>
      <trkpt lat="42.96493" lon="0.03576">
        <ele>1915.6</ele>
        <time>2018-03-22T11:04:34Z</time>
      </trkpt>
      <trkpt lat="42.96484" lon="0.03578">
        <ele>1917.91</ele>
        <time>2018-03-22T11:04:54Z</time>
      </trkpt>
      <trkpt lat="42.96473" lon="0.03582">
        <ele>1920.93</ele>
        <time>2018-03-22T11:05:18Z</time>
      </trkpt>
      <trkpt lat="42.96469" lon="0.03587">
        <ele>1922.99</ele>
        <time>2018-03-22T11:05:37Z</time>
      </trkpt>
      <trkpt lat="42.96471" lon="0.03591">
        <ele>1923.61</ele>
        <time>2018-03-22T11:06:10Z</time>
      </trkpt>
      <trkpt lat="42.96475" lon="0.03601">
        <ele>1925.59</ele>
        <time>2018-03-22T11:06:29Z</time>
      </trkpt>
      <trkpt lat="42.96471" lon="0.03607">
        <ele>1927.85</ele>
        <time>2018-03-22T11:06:49Z</time>
      </trkpt>
      <trkpt lat="42.96466" lon="0.03609">
        <ele>1929.84</ele>
        <time>2018-03-22T11:07:14Z</time>
      </trkpt>
      <trkpt lat="42.96461" lon="0.03611">
        <ele>1931.22</ele>
        <time>2018-03-22T11:07:42Z</time>
      </trkpt>
      <trkpt lat="42.96461" lon="0.03611">
        <ele>1931.51</ele>
        <time>2018-03-22T11:08:24Z</time>
      </trkpt>
      <trkpt lat="42.96462" lon="0.03617">
        <ele>1932.19</ele>
        <time>2018-03-22T11:08:39Z</time>
      </trkpt>
      <trkpt lat="42.96466" lon="0.03626">
        <ele>1934.62</ele>
        <time>2018-03-22T11:09:00Z</time>
      </trkpt>
      <trkpt lat="42.9646" lon="0.0363">
        <ele>1936.96</ele>
        <time>2018-03-22T11:09:19Z</time>
      </trkpt>
      <trkpt lat="42.96449" lon="0.03635">
        <ele>1939.38</ele>
        <time>2018-03-22T11:09:44Z</time>
      </trkpt>
      <trkpt lat="42.96449" lon="0.03641">
        <ele>1941.28</ele>
        <time>2018-03-22T11:10:01Z</time>
      </trkpt>
      <trkpt lat="42.96453" lon="0.03648">
        <ele>1943.27</ele>
        <time>2018-03-22T11:10:15Z</time>
      </trkpt>
      <trkpt lat="42.96456" lon="0.03656">
        <ele>1945.51</ele>
        <time>2018-03-22T11:10:33Z</time>
      </trkpt>
      <trkpt lat="42.96447" lon="0.0366">
        <ele>1948.21</ele>
        <time>2018-03-22T11:10:54Z</time>
      </trkpt>
      <trkpt lat="42.96438" lon="0.03664">
        <ele>1950.49</ele>
        <time>2018-03-22T11:11:16Z</time>
      </trkpt>
      <trkpt lat="42.96439" lon="0.0367">
        <ele>1951.75</ele>
        <time>2018-03-22T11:11:29Z</time>
      </trkpt>
      <trkpt lat="42.9644" lon="0.03672">
        <ele>1952.88</ele>
        <time>2018-03-22T11:11:46Z</time>
      </trkpt>
      <trkpt lat="42.9644" lon="0.03672">
        <ele>1953.06</ele>
        <time>2018-03-22T11:12:38Z</time>
      </trkpt>
      <trkpt lat="42.96443" lon="0.03677">
        <ele>1953.39</ele>
        <time>2018-03-22T11:13:22Z</time>
      </trkpt>
      <trkpt lat="42.96448" lon="0.03685">
        <ele>1955.21</ele>
        <time>2018-03-22T11:13:41Z</time>
      </trkpt>
      <trkpt lat="42.96453" lon="0.03695">
        <ele>1958.03</ele>
        <time>2018-03-22T11:14:04Z</time>
      </trkpt>
      <trkpt lat="42.96447" lon="0.03699">
        <ele>1960.27</ele>
        <time>2018-03-22T11:14:23Z</time>
      </trkpt>
      <trkpt lat="42.96439" lon="0.03702">
        <ele>1962.95</ele>
        <time>2018-03-22T11:14:43Z</time>
      </trkpt>
      <trkpt lat="42.96432" lon="0.03706">
        <ele>1965.37</ele>
        <time>2018-03-22T11:15:05Z</time>
      </trkpt>
      <trkpt lat="42.96431" lon="0.03711">
        <ele>1966.75</ele>
        <time>2018-03-22T11:15:19Z</time>
      </trkpt>
      <trkpt lat="42.96433" lon="0.03717">
        <ele>1968.4</ele>
        <time>2018-03-22T11:15:33Z</time>
      </trkpt>
      <trkpt lat="42.96436" lon="0.03728">
        <ele>1971.42</ele>
        <time>2018-03-22T11:15:57Z</time>
      </trkpt>
      <trkpt lat="42.9644" lon="0.03738">
        <ele>1973.77</ele>
        <time>2018-03-22T11:16:16Z</time>
      </trkpt>
      <trkpt lat="42.96442" lon="0.03747">
        <ele>1976.65</ele>
        <time>2018-03-22T11:16:39Z</time>
      </trkpt>
      <trkpt lat="42.96444" lon="0.03754">
        <ele>1977.74</ele>
        <time>2018-03-22T11:17:03Z</time>
      </trkpt>
      <trkpt lat="42.96441" lon="0.03764">
        <ele>1979.96</ele>
        <time>2018-03-22T11:17:18Z</time>
      </trkpt>
      <trkpt lat="42.96432" lon="0.03766">
        <ele>1981.99</ele>
        <time>2018-03-22T11:17:35Z</time>
      </trkpt>
      <trkpt lat="42.96426" lon="0.03765">
        <ele>1983.75</ele>
        <time>2018-03-22T11:17:54Z</time>
      </trkpt>
      <trkpt lat="42.96421" lon="0.03767">
        <ele>1984.97</ele>
        <time>2018-03-22T11:18:27Z</time>
      </trkpt>
      <trkpt lat="42.96413" lon="0.0377">
        <ele>1987.91</ele>
        <time>2018-03-22T11:18:43Z</time>
      </trkpt>
      <trkpt lat="42.96409" lon="0.0377">
        <ele>1990.42</ele>
        <time>2018-03-22T11:19:03Z</time>
      </trkpt>
      <trkpt lat="42.96404" lon="0.03773">
        <ele>1991.57</ele>
        <time>2018-03-22T11:19:24Z</time>
      </trkpt>
      <trkpt lat="42.96401" lon="0.03775">
        <ele>1993.58</ele>
        <time>2018-03-22T11:19:50Z</time>
      </trkpt>
      <trkpt lat="42.96395" lon="0.0378">
        <ele>1996.64</ele>
        <time>2018-03-22T11:20:06Z</time>
      </trkpt>
      <trkpt lat="42.96391" lon="0.03782">
        <ele>1999.11</ele>
        <time>2018-03-22T11:20:27Z</time>
      </trkpt>
      <trkpt lat="42.96385" lon="0.03787">
        <ele>2000.89</ele>
        <time>2018-03-22T11:20:42Z</time>
      </trkpt>
      <trkpt lat="42.96381" lon="0.03791">
        <ele>2003.52</ele>
        <time>2018-03-22T11:20:57Z</time>
      </trkpt>
      <trkpt lat="42.96379" lon="0.03792">
        <ele>2004.97</ele>
        <time>2018-03-22T11:21:13Z</time>
      </trkpt>
      <trkpt lat="42.96374" lon="0.03798">
        <ele>2006.36</ele>
        <time>2018-03-22T11:21:29Z</time>
      </trkpt>
      <trkpt lat="42.96368" lon="0.03804">
        <ele>2008.46</ele>
        <time>2018-03-22T11:21:45Z</time>
      </trkpt>
      <trkpt lat="42.96366" lon="0.03807">
        <ele>2009.4</ele>
        <time>2018-03-22T11:22:04Z</time>
      </trkpt>
      <trkpt lat="42.96359" lon="0.03815">
        <ele>2010.61</ele>
        <time>2018-03-22T11:22:21Z</time>
      </trkpt>
      <trkpt lat="42.96354" lon="0.03815">
        <ele>2011.53</ele>
        <time>2018-03-22T11:22:35Z</time>
      </trkpt>
      <trkpt lat="42.96351" lon="0.03817">
        <ele>2011.76</ele>
        <time>2018-03-22T11:22:53Z</time>
      </trkpt>
      <trkpt lat="42.96347" lon="0.0382">
        <ele>2012.3</ele>
        <time>2018-03-22T11:23:09Z</time>
      </trkpt>
      <trkpt lat="42.96347" lon="0.0382">
        <ele>2012.12</ele>
        <time>2018-03-22T11:23:31Z</time>
      </trkpt>
      <trkpt lat="42.96347" lon="0.0382">
        <ele>2012.29</ele>
        <time>2018-03-22T11:24:03Z</time>
      </trkpt>
      <trkpt lat="42.96347" lon="0.0382">
        <ele>2012.2</ele>
        <time>2018-03-22T11:24:41Z</time>
      </trkpt>
      <trkpt lat="42.96347" lon="0.0382">
        <ele>2011.9</ele>
        <time>2018-03-22T11:25:25Z</time>
      </trkpt>
      <trkpt lat="42.96347" lon="0.0382">
        <ele>2011.5</ele>
        <time>2018-03-22T11:26:09Z</time>
      </trkpt>
      <trkpt lat="42.96343" lon="0.03813">
        <ele>2011.25</ele>
        <time>2018-03-22T11:26:44Z</time>
      </trkpt>
      <trkpt lat="42.96344" lon="0.03813">
        <ele>2011.16</ele>
        <time>2018-03-22T11:27:12Z</time>
      </trkpt>
      <trkpt lat="42.96344" lon="0.03813">
        <ele>2010.9</ele>
        <time>2018-03-22T11:27:44Z</time>
      </trkpt>
      <trkpt lat="42.96341" lon="0.03811">
        <ele>2011.1</ele>
        <time>2018-03-22T11:28:04Z</time>
      </trkpt>
      <trkpt lat="42.96341" lon="0.03811">
        <ele>2011.16</ele>
        <time>2018-03-22T11:28:29Z</time>
      </trkpt>
      <trkpt lat="42.9634" lon="0.0381">
        <ele>2010.95</ele>
        <time>2018-03-22T11:28:56Z</time>
      </trkpt>
      <trkpt lat="42.9634" lon="0.0381">
        <ele>2010.45</ele>
        <time>2018-03-22T11:29:50Z</time>
      </trkpt>
      <trkpt lat="42.9634" lon="0.0381">
        <ele>2010.39</ele>
        <time>2018-03-22T11:30:37Z</time>
      </trkpt>
      <trkpt lat="42.96341" lon="0.0381">
        <ele>2010.24</ele>
        <time>2018-03-22T11:31:30Z</time>
      </trkpt>
      <trkpt lat="42.96341" lon="0.0381">
        <ele>2009.86</ele>
        <time>2018-03-22T11:32:07Z</time>
      </trkpt>
      <trkpt lat="42.96341" lon="0.0381">
        <ele>2009.44</ele>
        <time>2018-03-22T11:32:53Z</time>
      </trkpt>
      <trkpt lat="42.96341" lon="0.0381">
        <ele>2009.63</ele>
        <time>2018-03-22T11:33:32Z</time>
      </trkpt>
      <trkpt lat="42.96341" lon="0.0381">
        <ele>2009.36</ele>
        <time>2018-03-22T11:34:09Z</time>
      </trkpt>
      <trkpt lat="42.96341" lon="0.03809">
        <ele>2009.14</ele>
        <time>2018-03-22T11:34:30Z</time>
      </trkpt>
      <trkpt lat="42.96341" lon="0.03809">
        <ele>2009.31</ele>
        <time>2018-03-22T11:35:10Z</time>
      </trkpt>
      <trkpt lat="42.9634" lon="0.03811">
        <ele>2009.16</ele>
        <time>2018-03-22T11:35:35Z</time>
      </trkpt>
      <trkpt lat="42.96339" lon="0.03812">
        <ele>2008.99</ele>
        <time>2018-03-22T11:35:57Z</time>
      </trkpt>
      <trkpt lat="42.96339" lon="0.03812">
        <ele>2007.97</ele>
        <time>2018-03-22T11:36:25Z</time>
      </trkpt>
      <trkpt lat="42.9634" lon="0.03812">
        <ele>2007.73</ele>
        <time>2018-03-22T11:36:55Z</time>
      </trkpt>
      <trkpt lat="42.96341" lon="0.03811">
        <ele>2007.44</ele>
        <time>2018-03-22T11:37:31Z</time>
      </trkpt>
      <trkpt lat="42.96341" lon="0.0381">
        <ele>2007.57</ele>
        <time>2018-03-22T11:38:21Z</time>
      </trkpt>
      <trkpt lat="42.9634" lon="0.03811">
        <ele>2007.47</ele>
        <time>2018-03-22T11:39:11Z</time>
      </trkpt>
      <trkpt lat="42.96338" lon="0.03812">
        <ele>2006.95</ele>
        <time>2018-03-22T11:40:11Z</time>
      </trkpt>
      <trkpt lat="42.96338" lon="0.03813">
        <ele>2007.33</ele>
        <time>2018-03-22T11:41:22Z</time>
      </trkpt>
      <trkpt lat="42.96339" lon="0.03813">
        <ele>2006.82</ele>
        <time>2018-03-22T11:41:55Z</time>
      </trkpt>
      <trkpt lat="42.9634" lon="0.03812">
        <ele>2006.76</ele>
        <time>2018-03-22T11:42:31Z</time>
      </trkpt>
      <trkpt lat="42.96338" lon="0.03813">
        <ele>2006.07</ele>
        <time>2018-03-22T11:44:43Z</time>
      </trkpt>
      <trkpt lat="42.9634" lon="0.03814">
        <ele>2005.85</ele>
        <time>2018-03-22T11:46:23Z</time>
      </trkpt>
      <trkpt lat="42.96341" lon="0.03812">
        <ele>2005.74</ele>
        <time>2018-03-22T11:48:14Z</time>
      </trkpt>
      <trkpt lat="42.9634" lon="0.03812">
        <ele>2005.43</ele>
        <time>2018-03-22T11:50:34Z</time>
      </trkpt>
      <trkpt lat="42.96339" lon="0.03813">
        <ele>2005.3</ele>
        <time>2018-03-22T11:52:41Z</time>
      </trkpt>
      <trkpt lat="42.96339" lon="0.03812">
        <ele>2004.84</ele>
        <time>2018-03-22T11:56:03Z</time>
      </trkpt>
      <trkpt lat="42.9634" lon="0.03813">
        <ele>2005.08</ele>
        <time>2018-03-22T12:00:40Z</time>
      </trkpt>
      <trkpt lat="42.96339" lon="0.03813">
        <ele>2005.45</ele>
        <time>2018-03-22T12:01:22Z</time>
      </trkpt>
      <trkpt lat="42.96339" lon="0.03812">
        <ele>2004.4</ele>
        <time>2018-03-22T12:05:07Z</time>
      </trkpt>
      <trkpt lat="42.96339" lon="0.03812">
        <ele>2004.35</ele>
        <time>2018-03-22T12:08:14Z</time>
      </trkpt>
      <trkpt lat="42.9634" lon="0.03815">
        <ele>2004.2</ele>
        <time>2018-03-22T12:13:27Z</time>
      </trkpt>
      <trkpt lat="42.9634" lon="0.03814">
        <ele>2004.38</ele>
        <time>2018-03-22T12:13:58Z</time>
      </trkpt>
      <trkpt lat="42.96341" lon="0.03813">
        <ele>2004.15</ele>
        <time>2018-03-22T12:15:53Z</time>
      </trkpt>
      <trkpt lat="42.96342" lon="0.03814">
        <ele>2004.76</ele>
        <time>2018-03-22T12:16:19Z</time>
      </trkpt>
      <trkpt lat="42.96339" lon="0.03813">
        <ele>2004.68</ele>
        <time>2018-03-22T12:16:50Z</time>
      </trkpt>
      <trkpt lat="42.96343" lon="0.03813">
        <ele>2004.54</ele>
        <time>2018-03-22T12:17:17Z</time>
      </trkpt>
      <trkpt lat="42.96342" lon="0.03813">
        <ele>2004.52</ele>
        <time>2018-03-22T12:17:45Z</time>
      </trkpt>
      <trkpt lat="42.96339" lon="0.03813">
        <ele>2004.48</ele>
        <time>2018-03-22T12:18:18Z</time>
      </trkpt>
      <trkpt lat="42.96341" lon="0.03813">
        <ele>2004.14</ele>
        <time>2018-03-22T12:18:55Z</time>
      </trkpt>
      <trkpt lat="42.96341" lon="0.03812">
        <ele>2003.8</ele>
        <time>2018-03-22T12:19:33Z</time>
      </trkpt>
      <trkpt lat="42.96341" lon="0.03815">
        <ele>2003.33</ele>
        <time>2018-03-22T12:20:01Z</time>
      </trkpt>
      <trkpt lat="42.96341" lon="0.03814">
        <ele>2003.08</ele>
        <time>2018-03-22T12:20:58Z</time>
      </trkpt>
      <trkpt lat="42.96341" lon="0.03813">
        <ele>2003.29</ele>
        <time>2018-03-22T12:21:49Z</time>
      </trkpt>
      <trkpt lat="42.96342" lon="0.03813">
        <ele>2002.95</ele>
        <time>2018-03-22T12:23:05Z</time>
      </trkpt>
      <trkpt lat="42.96341" lon="0.03813">
        <ele>2003.29</ele>
        <time>2018-03-22T12:24:38Z</time>
      </trkpt>
      <trkpt lat="42.96341" lon="0.03812">
        <ele>2004.12</ele>
        <time>2018-03-22T12:25:00Z</time>
      </trkpt>
      <trkpt lat="42.96341" lon="0.03811">
        <ele>2003.92</ele>
        <time>2018-03-22T12:25:30Z</time>
      </trkpt>
      <trkpt lat="42.96341" lon="0.03811">
        <ele>2004.08</ele>
        <time>2018-03-22T12:25:51Z</time>
      </trkpt>
      <trkpt lat="42.96341" lon="0.0381">
        <ele>2004.35</ele>
        <time>2018-03-22T12:26:10Z</time>
      </trkpt>
      <trkpt lat="42.96342" lon="0.0381">
        <ele>2004.24</ele>
        <time>2018-03-22T12:27:02Z</time>
      </trkpt>
      <trkpt lat="42.96343" lon="0.03811">
        <ele>2004.21</ele>
        <time>2018-03-22T12:27:34Z</time>
      </trkpt>
      <trkpt lat="42.96343" lon="0.03811">
        <ele>2003.76</ele>
        <time>2018-03-22T12:28:15Z</time>
      </trkpt>
      <trkpt lat="42.96342" lon="0.03811">
        <ele>2003.81</ele>
        <time>2018-03-22T12:28:27Z</time>
      </trkpt>
      <trkpt lat="42.96342" lon="0.03811">
        <ele>2003.25</ele>
        <time>2018-03-22T12:29:13Z</time>
      </trkpt>
      <trkpt lat="42.96342" lon="0.03811">
        <ele>2004.11</ele>
        <time>2018-03-22T12:30:28Z</time>
      </trkpt>
      <trkpt lat="42.96341" lon="0.03811">
        <ele>2004.52</ele>
        <time>2018-03-22T12:31:01Z</time>
      </trkpt>
      <trkpt lat="42.96337" lon="0.03802">
        <ele>2004.21</ele>
        <time>2018-03-22T12:31:17Z</time>
      </trkpt>
      <trkpt lat="42.96331" lon="0.03792">
        <ele>2002.88</ele>
        <time>2018-03-22T12:31:32Z</time>
      </trkpt>
      <trkpt lat="42.96326" lon="0.03783">
        <ele>2001.09</ele>
        <time>2018-03-22T12:31:45Z</time>
      </trkpt>
      <trkpt lat="42.96321" lon="0.03773">
        <ele>1999.82</ele>
        <time>2018-03-22T12:32:00Z</time>
      </trkpt>
      <trkpt lat="42.96316" lon="0.03766">
        <ele>1998.61</ele>
        <time>2018-03-22T12:32:14Z</time>
      </trkpt>
      <trkpt lat="42.96308" lon="0.03755">
        <ele>1996.8</ele>
        <time>2018-03-22T12:32:32Z</time>
      </trkpt>
      <trkpt lat="42.96301" lon="0.03747">
        <ele>1994.48</ele>
        <time>2018-03-22T12:32:48Z</time>
      </trkpt>
      <trkpt lat="42.96293" lon="0.03741">
        <ele>1991.44</ele>
        <time>2018-03-22T12:33:04Z</time>
      </trkpt>
      <trkpt lat="42.96287" lon="0.03735">
        <ele>1988.32</ele>
        <time>2018-03-22T12:33:16Z</time>
      </trkpt>
      <trkpt lat="42.96282" lon="0.0373">
        <ele>1985.09</ele>
        <time>2018-03-22T12:33:27Z</time>
      </trkpt>
      <trkpt lat="42.96277" lon="0.03725">
        <ele>1981.94</ele>
        <time>2018-03-22T12:33:39Z</time>
      </trkpt>
      <trkpt lat="42.96273" lon="0.0372">
        <ele>1978.92</ele>
        <time>2018-03-22T12:33:52Z</time>
      </trkpt>
      <trkpt lat="42.96267" lon="0.03713">
        <ele>1975.74</ele>
        <time>2018-03-22T12:34:05Z</time>
      </trkpt>
      <trkpt lat="42.96262" lon="0.03707">
        <ele>1972.72</ele>
        <time>2018-03-22T12:34:13Z</time>
      </trkpt>
      <trkpt lat="42.96256" lon="0.03702">
        <ele>1971.06</ele>
        <time>2018-03-22T12:34:20Z</time>
      </trkpt>
      <trkpt lat="42.96245" lon="0.03685">
        <ele>1967.83</ele>
        <time>2018-03-22T12:34:36Z</time>
      </trkpt>
      <trkpt lat="42.96235" lon="0.03665">
        <ele>1965.09</ele>
        <time>2018-03-22T12:34:54Z</time>
      </trkpt>
      <trkpt lat="42.96226" lon="0.03642">
        <ele>1963.41</ele>
        <time>2018-03-22T12:35:13Z</time>
      </trkpt>
      <trkpt lat="42.96218" lon="0.03624">
        <ele>1962.88</ele>
        <time>2018-03-22T12:35:31Z</time>
      </trkpt>
      <trkpt lat="42.96212" lon="0.03605">
        <ele>1964</ele>
        <time>2018-03-22T12:35:49Z</time>
      </trkpt>
      <trkpt lat="42.96206" lon="0.03587">
        <ele>1965.2</ele>
        <time>2018-03-22T12:36:08Z</time>
      </trkpt>
      <trkpt lat="42.962" lon="0.0357">
        <ele>1965.64</ele>
        <time>2018-03-22T12:36:26Z</time>
      </trkpt>
      <trkpt lat="42.9619" lon="0.03563">
        <ele>1965.2</ele>
        <time>2018-03-22T12:36:41Z</time>
      </trkpt>
      <trkpt lat="42.96177" lon="0.03553">
        <ele>1965.13</ele>
        <time>2018-03-22T12:36:59Z</time>
      </trkpt>
      <trkpt lat="42.96168" lon="0.03538">
        <ele>1963.95</ele>
        <time>2018-03-22T12:37:17Z</time>
      </trkpt>
      <trkpt lat="42.96157" lon="0.03525">
        <ele>1961.66</ele>
        <time>2018-03-22T12:37:36Z</time>
      </trkpt>
      <trkpt lat="42.96146" lon="0.03508">
        <ele>1960.62</ele>
        <time>2018-03-22T12:37:55Z</time>
      </trkpt>
      <trkpt lat="42.96133" lon="0.03497">
        <ele>1961.56</ele>
        <time>2018-03-22T12:38:14Z</time>
      </trkpt>
      <trkpt lat="42.96128" lon="0.0348">
        <ele>1964.49</ele>
        <time>2018-03-22T12:38:35Z</time>
      </trkpt>
      <trkpt lat="42.96118" lon="0.03466">
        <ele>1967.08</ele>
        <time>2018-03-22T12:38:54Z</time>
      </trkpt>
      <trkpt lat="42.96108" lon="0.03453">
        <ele>1969.9</ele>
        <time>2018-03-22T12:39:14Z</time>
      </trkpt>
      <trkpt lat="42.96098" lon="0.03443">
        <ele>1971.51</ele>
        <time>2018-03-22T12:39:33Z</time>
      </trkpt>
      <trkpt lat="42.96089" lon="0.03429">
        <ele>1973.04</ele>
        <time>2018-03-22T12:39:52Z</time>
      </trkpt>
      <trkpt lat="42.96082" lon="0.03415">
        <ele>1974.78</ele>
        <time>2018-03-22T12:40:10Z</time>
      </trkpt>
      <trkpt lat="42.96075" lon="0.03402">
        <ele>1976.27</ele>
        <time>2018-03-22T12:40:29Z</time>
      </trkpt>
      <trkpt lat="42.96066" lon="0.03392">
        <ele>1978.93</ele>
        <time>2018-03-22T12:40:47Z</time>
      </trkpt>
      <trkpt lat="42.96054" lon="0.03382">
        <ele>1981.41</ele>
        <time>2018-03-22T12:41:07Z</time>
      </trkpt>
      <trkpt lat="42.96053" lon="0.03382">
        <ele>1982.57</ele>
        <time>2018-03-22T12:41:24Z</time>
      </trkpt>
      <trkpt lat="42.96045" lon="0.03378">
        <ele>1982.4</ele>
        <time>2018-03-22T12:41:42Z</time>
      </trkpt>
      <trkpt lat="42.96031" lon="0.03375">
        <ele>1980.65</ele>
        <time>2018-03-22T12:41:59Z</time>
      </trkpt>
      <trkpt lat="42.96019" lon="0.03377">
        <ele>1978.34</ele>
        <time>2018-03-22T12:42:17Z</time>
      </trkpt>
      <trkpt lat="42.96012" lon="0.0338">
        <ele>1976.27</ele>
        <time>2018-03-22T12:42:32Z</time>
      </trkpt>
      <trkpt lat="42.96012" lon="0.0338">
        <ele>1974.9</ele>
        <time>2018-03-22T12:42:54Z</time>
      </trkpt>
      <trkpt lat="42.96006" lon="0.03382">
        <ele>1974.26</ele>
        <time>2018-03-22T12:43:12Z</time>
      </trkpt>
      <trkpt lat="42.95999" lon="0.03384">
        <ele>1971.16</ele>
        <time>2018-03-22T12:43:23Z</time>
      </trkpt>
      <trkpt lat="42.95992" lon="0.03385">
        <ele>1968.08</ele>
        <time>2018-03-22T12:43:35Z</time>
      </trkpt>
      <trkpt lat="42.95986" lon="0.03389">
        <ele>1964.7</ele>
        <time>2018-03-22T12:43:45Z</time>
      </trkpt>
      <trkpt lat="42.9598" lon="0.03393">
        <ele>1961.42</ele>
        <time>2018-03-22T12:43:55Z</time>
      </trkpt>
      <trkpt lat="42.95973" lon="0.03398">
        <ele>1958.31</ele>
        <time>2018-03-22T12:44:05Z</time>
      </trkpt>
      <trkpt lat="42.95964" lon="0.03403">
        <ele>1955.47</ele>
        <time>2018-03-22T12:44:16Z</time>
      </trkpt>
      <trkpt lat="42.95946" lon="0.03411">
        <ele>1952.23</ele>
        <time>2018-03-22T12:44:35Z</time>
      </trkpt>
      <trkpt lat="42.95925" lon="0.03418">
        <ele>1951.7</ele>
        <time>2018-03-22T12:45:00Z</time>
      </trkpt>
      <trkpt lat="42.95907" lon="0.03421">
        <ele>1950.5</ele>
        <time>2018-03-22T12:45:20Z</time>
      </trkpt>
      <trkpt lat="42.95892" lon="0.03423">
        <ele>1947.5</ele>
        <time>2018-03-22T12:45:38Z</time>
      </trkpt>
      <trkpt lat="42.95879" lon="0.03421">
        <ele>1947.72</ele>
        <time>2018-03-22T12:45:58Z</time>
      </trkpt>
      <trkpt lat="42.95873" lon="0.03422">
        <ele>1948.38</ele>
        <time>2018-03-22T12:46:14Z</time>
      </trkpt>
      <trkpt lat="42.95874" lon="0.03421">
        <ele>1948.2</ele>
        <time>2018-03-22T12:46:35Z</time>
      </trkpt>
      <trkpt lat="42.95874" lon="0.0342">
        <ele>1948.64</ele>
        <time>2018-03-22T12:46:49Z</time>
      </trkpt>
      <trkpt lat="42.95867" lon="0.0342">
        <ele>1948.24</ele>
        <time>2018-03-22T12:47:04Z</time>
      </trkpt>
      <trkpt lat="42.95848" lon="0.03418">
        <ele>1946.63</ele>
        <time>2018-03-22T12:47:28Z</time>
      </trkpt>
      <trkpt lat="42.95835" lon="0.03416">
        <ele>1946.76</ele>
        <time>2018-03-22T12:47:48Z</time>
      </trkpt>
      <trkpt lat="42.95831" lon="0.03417">
        <ele>1947.49</ele>
        <time>2018-03-22T12:48:06Z</time>
      </trkpt>
      <trkpt lat="42.95824" lon="0.03418">
        <ele>1947.28</ele>
        <time>2018-03-22T12:48:26Z</time>
      </trkpt>
      <trkpt lat="42.95807" lon="0.03422">
        <ele>1944.72</ele>
        <time>2018-03-22T12:48:47Z</time>
      </trkpt>
      <trkpt lat="42.95792" lon="0.03425">
        <ele>1943.64</ele>
        <time>2018-03-22T12:49:07Z</time>
      </trkpt>
      <trkpt lat="42.95777" lon="0.03427">
        <ele>1944.82</ele>
        <time>2018-03-22T12:49:29Z</time>
      </trkpt>
      <trkpt lat="42.95764" lon="0.03429">
        <ele>1945.6</ele>
        <time>2018-03-22T12:49:48Z</time>
      </trkpt>
      <trkpt lat="42.95752" lon="0.03432">
        <ele>1947.37</ele>
        <time>2018-03-22T12:50:06Z</time>
      </trkpt>
      <trkpt lat="42.9574" lon="0.03434">
        <ele>1949.2</ele>
        <time>2018-03-22T12:50:25Z</time>
      </trkpt>
      <trkpt lat="42.95729" lon="0.03436">
        <ele>1950.81</ele>
        <time>2018-03-22T12:50:45Z</time>
      </trkpt>
      <trkpt lat="42.9572" lon="0.03438">
        <ele>1952.58</ele>
        <time>2018-03-22T12:51:04Z</time>
      </trkpt>
      <trkpt lat="42.95711" lon="0.03441">
        <ele>1953.97</ele>
        <time>2018-03-22T12:51:22Z</time>
      </trkpt>
      <trkpt lat="42.95711" lon="0.03442">
        <ele>1954.1</ele>
        <time>2018-03-22T12:51:48Z</time>
      </trkpt>
      <trkpt lat="42.95712" lon="0.03442">
        <ele>1953.95</ele>
        <time>2018-03-22T12:52:10Z</time>
      </trkpt>
      <trkpt lat="42.95711" lon="0.03442">
        <ele>1954.21</ele>
        <time>2018-03-22T12:52:38Z</time>
      </trkpt>
      <trkpt lat="42.95711" lon="0.03442">
        <ele>1954.32</ele>
        <time>2018-03-22T12:53:14Z</time>
      </trkpt>
      <trkpt lat="42.95711" lon="0.0344">
        <ele>1954.4</ele>
        <time>2018-03-22T12:53:42Z</time>
      </trkpt>
      <trkpt lat="42.95711" lon="0.0344">
        <ele>1954.43</ele>
        <time>2018-03-22T12:54:03Z</time>
      </trkpt>
      <trkpt lat="42.95711" lon="0.0344">
        <ele>1954.64</ele>
        <time>2018-03-22T12:54:45Z</time>
      </trkpt>
      <trkpt lat="42.95703" lon="0.03439">
        <ele>1953.6</ele>
        <time>2018-03-22T12:55:01Z</time>
      </trkpt>
      <trkpt lat="42.95694" lon="0.03435">
        <ele>1950.77</ele>
        <time>2018-03-22T12:55:17Z</time>
      </trkpt>
      <trkpt lat="42.95687" lon="0.0343">
        <ele>1947.69</ele>
        <time>2018-03-22T12:55:30Z</time>
      </trkpt>
      <trkpt lat="42.95678" lon="0.03422">
        <ele>1944.53</ele>
        <time>2018-03-22T12:55:45Z</time>
      </trkpt>
      <trkpt lat="42.95668" lon="0.03412">
        <ele>1941.52</ele>
        <time>2018-03-22T12:56:00Z</time>
      </trkpt>
      <trkpt lat="42.9566" lon="0.034">
        <ele>1938.38</ele>
        <time>2018-03-22T12:56:15Z</time>
      </trkpt>
      <trkpt lat="42.95652" lon="0.03391">
        <ele>1936.59</ele>
        <time>2018-03-22T12:56:32Z</time>
      </trkpt>
      <trkpt lat="42.95648" lon="0.03386">
        <ele>1934.56</ele>
        <time>2018-03-22T12:56:47Z</time>
      </trkpt>
      <trkpt lat="42.95644" lon="0.03382">
        <ele>1932.53</ele>
        <time>2018-03-22T12:57:01Z</time>
      </trkpt>
      <trkpt lat="42.95643" lon="0.03378">
        <ele>1930.1</ele>
        <time>2018-03-22T12:57:14Z</time>
      </trkpt>
      <trkpt lat="42.95646" lon="0.03372">
        <ele>1928.88</ele>
        <time>2018-03-22T12:57:26Z</time>
      </trkpt>
      <trkpt lat="42.95653" lon="0.03366">
        <ele>1925.81</ele>
        <time>2018-03-22T12:57:43Z</time>
      </trkpt>
      <trkpt lat="42.95655" lon="0.0336">
        <ele>1922.72</ele>
        <time>2018-03-22T12:57:59Z</time>
      </trkpt>
      <trkpt lat="42.95658" lon="0.03353">
        <ele>1919.66</ele>
        <time>2018-03-22T12:58:13Z</time>
      </trkpt>
      <trkpt lat="42.95659" lon="0.03347">
        <ele>1916.59</ele>
        <time>2018-03-22T12:58:25Z</time>
      </trkpt>
      <trkpt lat="42.95662" lon="0.0334">
        <ele>1913.42</ele>
        <time>2018-03-22T12:58:38Z</time>
      </trkpt>
      <trkpt lat="42.95663" lon="0.03333">
        <ele>1910.22</ele>
        <time>2018-03-22T12:58:49Z</time>
      </trkpt>
      <trkpt lat="42.95666" lon="0.03324">
        <ele>1907.16</ele>
        <time>2018-03-22T12:59:01Z</time>
      </trkpt>
      <trkpt lat="42.95669" lon="0.03316">
        <ele>1903.89</ele>
        <time>2018-03-22T12:59:11Z</time>
      </trkpt>
      <trkpt lat="42.95676" lon="0.03309">
        <ele>1900.71</ele>
        <time>2018-03-22T12:59:23Z</time>
      </trkpt>
      <trkpt lat="42.95677" lon="0.03309">
        <ele>1899.61</ele>
        <time>2018-03-22T12:59:42Z</time>
      </trkpt>
      <trkpt lat="42.95671" lon="0.03303">
        <ele>1898.89</ele>
        <time>2018-03-22T13:00:00Z</time>
      </trkpt>
      <trkpt lat="42.95663" lon="0.03295">
        <ele>1896.68</ele>
        <time>2018-03-22T13:00:19Z</time>
      </trkpt>
      <trkpt lat="42.95664" lon="0.03293">
        <ele>1895.7</ele>
        <time>2018-03-22T13:00:46Z</time>
      </trkpt>
      <trkpt lat="42.95664" lon="0.03293">
        <ele>1896.11</ele>
        <time>2018-03-22T13:01:22Z</time>
      </trkpt>
      <trkpt lat="42.95664" lon="0.03293">
        <ele>1895.59</ele>
        <time>2018-03-22T13:02:22Z</time>
      </trkpt>
      <trkpt lat="42.95664" lon="0.03293">
        <ele>1895.79</ele>
        <time>2018-03-22T13:03:08Z</time>
      </trkpt>
      <trkpt lat="42.95663" lon="0.03288">
        <ele>1894.91</ele>
        <time>2018-03-22T13:03:25Z</time>
      </trkpt>
      <trkpt lat="42.95665" lon="0.03282">
        <ele>1892.41</ele>
        <time>2018-03-22T13:03:43Z</time>
      </trkpt>
      <trkpt lat="42.95674" lon="0.03278">
        <ele>1889.9</ele>
        <time>2018-03-22T13:04:00Z</time>
      </trkpt>
      <trkpt lat="42.95676" lon="0.03278">
        <ele>1887.59</ele>
        <time>2018-03-22T13:04:17Z</time>
      </trkpt>
      <trkpt lat="42.95679" lon="0.03276">
        <ele>1887.22</ele>
        <time>2018-03-22T13:04:38Z</time>
      </trkpt>
      <trkpt lat="42.95681" lon="0.03274">
        <ele>1886.75</ele>
        <time>2018-03-22T13:04:41Z</time>
      </trkpt>
      <trkpt lat="42.95686" lon="0.03266">
        <ele>1883.13</ele>
        <time>2018-03-22T13:04:50Z</time>
      </trkpt>
      <trkpt lat="42.95689" lon="0.0326">
        <ele>1879.97</ele>
        <time>2018-03-22T13:04:56Z</time>
      </trkpt>
      <trkpt lat="42.95691" lon="0.03255">
        <ele>1876.65</ele>
        <time>2018-03-22T13:05:03Z</time>
      </trkpt>
      <trkpt lat="42.95693" lon="0.03253">
        <ele>1873.52</ele>
        <time>2018-03-22T13:05:14Z</time>
      </trkpt>
      <trkpt lat="42.95697" lon="0.03248">
        <ele>1872.43</ele>
        <time>2018-03-22T13:05:27Z</time>
      </trkpt>
      <trkpt lat="42.95703" lon="0.03241">
        <ele>1869.22</ele>
        <time>2018-03-22T13:05:38Z</time>
      </trkpt>
      <trkpt lat="42.95709" lon="0.03234">
        <ele>1866.14</ele>
        <time>2018-03-22T13:05:49Z</time>
      </trkpt>
      <trkpt lat="42.95715" lon="0.03229">
        <ele>1862.88</ele>
        <time>2018-03-22T13:05:59Z</time>
      </trkpt>
      <trkpt lat="42.95718" lon="0.03225">
        <ele>1861.8</ele>
        <time>2018-03-22T13:06:03Z</time>
      </trkpt>
      <trkpt lat="42.95725" lon="0.03217">
        <ele>1858.38</ele>
        <time>2018-03-22T13:06:11Z</time>
      </trkpt>
      <trkpt lat="42.9573" lon="0.03212">
        <ele>1855.34</ele>
        <time>2018-03-22T13:06:18Z</time>
      </trkpt>
      <trkpt lat="42.95735" lon="0.03207">
        <ele>1852.19</ele>
        <time>2018-03-22T13:06:26Z</time>
      </trkpt>
      <trkpt lat="42.95738" lon="0.03205">
        <ele>1850.02</ele>
        <time>2018-03-22T13:06:45Z</time>
      </trkpt>
      <trkpt lat="42.95745" lon="0.03199">
        <ele>1849.88</ele>
        <time>2018-03-22T13:07:01Z</time>
      </trkpt>
      <trkpt lat="42.9576" lon="0.0319">
        <ele>1848.68</ele>
        <time>2018-03-22T13:07:21Z</time>
      </trkpt>
      <trkpt lat="42.95771" lon="0.03188">
        <ele>1848</ele>
        <time>2018-03-22T13:07:34Z</time>
      </trkpt>
      <trkpt lat="42.95783" lon="0.03182">
        <ele>1846.96</ele>
        <time>2018-03-22T13:07:52Z</time>
      </trkpt>
      <trkpt lat="42.95791" lon="0.03179">
        <ele>1847.2</ele>
        <time>2018-03-22T13:08:10Z</time>
      </trkpt>
      <trkpt lat="42.958" lon="0.0318">
        <ele>1847.53</ele>
        <time>2018-03-22T13:08:24Z</time>
      </trkpt>
      <trkpt lat="42.95818" lon="0.03178">
        <ele>1846.21</ele>
        <time>2018-03-22T13:08:45Z</time>
      </trkpt>
      <trkpt lat="42.95832" lon="0.03164">
        <ele>1845.08</ele>
        <time>2018-03-22T13:09:05Z</time>
      </trkpt>
      <trkpt lat="42.95841" lon="0.03155">
        <ele>1845.08</ele>
        <time>2018-03-22T13:09:23Z</time>
      </trkpt>
      <trkpt lat="42.95844" lon="0.03148">
        <ele>1846.12</ele>
        <time>2018-03-22T13:09:39Z</time>
      </trkpt>
      <trkpt lat="42.95853" lon="0.03156">
        <ele>1848.21</ele>
        <time>2018-03-22T13:09:57Z</time>
      </trkpt>
      <trkpt lat="42.95866" lon="0.03154">
        <ele>1848.96</ele>
        <time>2018-03-22T13:10:15Z</time>
      </trkpt>
      <trkpt lat="42.95878" lon="0.03148">
        <ele>1848.39</ele>
        <time>2018-03-22T13:10:33Z</time>
      </trkpt>
      <trkpt lat="42.95885" lon="0.03138">
        <ele>1849.04</ele>
        <time>2018-03-22T13:10:51Z</time>
      </trkpt>
      <trkpt lat="42.9589" lon="0.03129">
        <ele>1849.43</ele>
        <time>2018-03-22T13:11:05Z</time>
      </trkpt>
      <trkpt lat="42.959" lon="0.03118">
        <ele>1850.33</ele>
        <time>2018-03-22T13:11:23Z</time>
      </trkpt>
      <trkpt lat="42.95907" lon="0.03112">
        <ele>1850.7</ele>
        <time>2018-03-22T13:11:38Z</time>
      </trkpt>
      <trkpt lat="42.95915" lon="0.03102">
        <ele>1852.27</ele>
        <time>2018-03-22T13:11:57Z</time>
      </trkpt>
      <trkpt lat="42.95919" lon="0.03098">
        <ele>1853.46</ele>
        <time>2018-03-22T13:12:13Z</time>
      </trkpt>
      <trkpt lat="42.95923" lon="0.03095">
        <ele>1853.82</ele>
        <time>2018-03-22T13:12:33Z</time>
      </trkpt>
      <trkpt lat="42.95935" lon="0.03093">
        <ele>1853.74</ele>
        <time>2018-03-22T13:12:51Z</time>
      </trkpt>
      <trkpt lat="42.95944" lon="0.03087">
        <ele>1853.84</ele>
        <time>2018-03-22T13:13:07Z</time>
      </trkpt>
      <trkpt lat="42.9595" lon="0.03075">
        <ele>1854.31</ele>
        <time>2018-03-22T13:13:25Z</time>
      </trkpt>
      <trkpt lat="42.95958" lon="0.03065">
        <ele>1855.13</ele>
        <time>2018-03-22T13:13:44Z</time>
      </trkpt>
      <trkpt lat="42.95969" lon="0.03059">
        <ele>1856.85</ele>
        <time>2018-03-22T13:14:04Z</time>
      </trkpt>
      <trkpt lat="42.95979" lon="0.03055">
        <ele>1858.31</ele>
        <time>2018-03-22T13:14:23Z</time>
      </trkpt>
      <trkpt lat="42.95989" lon="0.03048">
        <ele>1859.12</ele>
        <time>2018-03-22T13:14:40Z</time>
      </trkpt>
      <trkpt lat="42.95999" lon="0.03038">
        <ele>1858.99</ele>
        <time>2018-03-22T13:15:00Z</time>
      </trkpt>
      <trkpt lat="42.96006" lon="0.03025">
        <ele>1859.26</ele>
        <time>2018-03-22T13:15:18Z</time>
      </trkpt>
      <trkpt lat="42.96015" lon="0.03011">
        <ele>1859.65</ele>
        <time>2018-03-22T13:15:39Z</time>
      </trkpt>
      <trkpt lat="42.96026" lon="0.03005">
        <ele>1859.78</ele>
        <time>2018-03-22T13:15:57Z</time>
      </trkpt>
      <trkpt lat="42.96032" lon="0.02994">
        <ele>1859.76</ele>
        <time>2018-03-22T13:16:15Z</time>
      </trkpt>
      <trkpt lat="42.96036" lon="0.02985">
        <ele>1860.88</ele>
        <time>2018-03-22T13:16:31Z</time>
      </trkpt>
      <trkpt lat="42.96041" lon="0.02977">
        <ele>1861.84</ele>
        <time>2018-03-22T13:16:48Z</time>
      </trkpt>
      <trkpt lat="42.96047" lon="0.02968">
        <ele>1862.25</ele>
        <time>2018-03-22T13:17:04Z</time>
      </trkpt>
      <trkpt lat="42.96052" lon="0.02962">
        <ele>1862.89</ele>
        <time>2018-03-22T13:17:21Z</time>
      </trkpt>
      <trkpt lat="42.96057" lon="0.02953">
        <ele>1862.76</ele>
        <time>2018-03-22T13:17:38Z</time>
      </trkpt>
      <trkpt lat="42.96063" lon="0.02941">
        <ele>1863.07</ele>
        <time>2018-03-22T13:17:55Z</time>
      </trkpt>
      <trkpt lat="42.96066" lon="0.02929">
        <ele>1863.32</ele>
        <time>2018-03-22T13:18:12Z</time>
      </trkpt>
      <trkpt lat="42.96068" lon="0.02914">
        <ele>1864.42</ele>
        <time>2018-03-22T13:18:31Z</time>
      </trkpt>
      <trkpt lat="42.96073" lon="0.029">
        <ele>1865.58</ele>
        <time>2018-03-22T13:18:50Z</time>
      </trkpt>
      <trkpt lat="42.9608" lon="0.0289">
        <ele>1866.97</ele>
        <time>2018-03-22T13:19:08Z</time>
      </trkpt>
      <trkpt lat="42.96089" lon="0.0288">
        <ele>1867.72</ele>
        <time>2018-03-22T13:19:27Z</time>
      </trkpt>
      <trkpt lat="42.961" lon="0.02876">
        <ele>1869.06</ele>
        <time>2018-03-22T13:19:48Z</time>
      </trkpt>
      <trkpt lat="42.96101" lon="0.02876">
        <ele>1869.31</ele>
        <time>2018-03-22T13:20:13Z</time>
      </trkpt>
      <trkpt lat="42.961" lon="0.02878">
        <ele>1869.27</ele>
        <time>2018-03-22T13:20:43Z</time>
      </trkpt>
      <trkpt lat="42.96103" lon="0.02878">
        <ele>1869.13</ele>
        <time>2018-03-22T13:21:10Z</time>
      </trkpt>
      <trkpt lat="42.96111" lon="0.02874">
        <ele>1869.63</ele>
        <time>2018-03-22T13:21:26Z</time>
      </trkpt>
      <trkpt lat="42.9612" lon="0.0287">
        <ele>1870.46</ele>
        <time>2018-03-22T13:21:40Z</time>
      </trkpt>
      <trkpt lat="42.96131" lon="0.02864">
        <ele>1870.34</ele>
        <time>2018-03-22T13:21:57Z</time>
      </trkpt>
      <trkpt lat="42.96142" lon="0.02859">
        <ele>1869.73</ele>
        <time>2018-03-22T13:22:14Z</time>
      </trkpt>
      <trkpt lat="42.96152" lon="0.02853">
        <ele>1869.27</ele>
        <time>2018-03-22T13:22:30Z</time>
      </trkpt>
      <trkpt lat="42.96162" lon="0.02848">
        <ele>1869.06</ele>
        <time>2018-03-22T13:22:47Z</time>
      </trkpt>
      <trkpt lat="42.96171" lon="0.02841">
        <ele>1868.19</ele>
        <time>2018-03-22T13:23:03Z</time>
      </trkpt>
      <trkpt lat="42.9618" lon="0.02834">
        <ele>1867.29</ele>
        <time>2018-03-22T13:23:19Z</time>
      </trkpt>
      <trkpt lat="42.96189" lon="0.02827">
        <ele>1866.61</ele>
        <time>2018-03-22T13:23:36Z</time>
      </trkpt>
      <trkpt lat="42.96197" lon="0.02822">
        <ele>1866.28</ele>
        <time>2018-03-22T13:23:50Z</time>
      </trkpt>
      <trkpt lat="42.96204" lon="0.02816">
        <ele>1866.06</ele>
        <time>2018-03-22T13:24:04Z</time>
      </trkpt>
      <trkpt lat="42.96213" lon="0.02811">
        <ele>1866.52</ele>
        <time>2018-03-22T13:24:20Z</time>
      </trkpt>
      <trkpt lat="42.96213" lon="0.02811">
        <ele>1866.56</ele>
        <time>2018-03-22T13:24:49Z</time>
      </trkpt>
      <trkpt lat="42.96212" lon="0.0281">
        <ele>1866.11</ele>
        <time>2018-03-22T13:25:20Z</time>
      </trkpt>
      <trkpt lat="42.96213" lon="0.0281">
        <ele>1865.97</ele>
        <time>2018-03-22T13:25:42Z</time>
      </trkpt>
      <trkpt lat="42.96213" lon="0.02809">
        <ele>1866.17</ele>
        <time>2018-03-22T13:26:04Z</time>
      </trkpt>
      <trkpt lat="42.96214" lon="0.02809">
        <ele>1866.24</ele>
        <time>2018-03-22T13:26:38Z</time>
      </trkpt>
      <trkpt lat="42.96214" lon="0.02809">
        <ele>1865.98</ele>
        <time>2018-03-22T13:27:00Z</time>
      </trkpt>
      <trkpt lat="42.96214" lon="0.0281">
        <ele>1866.41</ele>
        <time>2018-03-22T13:27:34Z</time>
      </trkpt>
      <trkpt lat="42.96214" lon="0.0281">
        <ele>1866.14</ele>
        <time>2018-03-22T13:28:16Z</time>
      </trkpt>
      <trkpt lat="42.96215" lon="0.0281">
        <ele>1866.37</ele>
        <time>2018-03-22T13:28:42Z</time>
      </trkpt>
      <trkpt lat="42.96215" lon="0.0281">
        <ele>1866.25</ele>
        <time>2018-03-22T13:29:40Z</time>
      </trkpt>
      <trkpt lat="42.96215" lon="0.02811">
        <ele>1866.27</ele>
        <time>2018-03-22T13:30:25Z</time>
      </trkpt>
      <trkpt lat="42.96215" lon="0.02811">
        <ele>1866.3</ele>
        <time>2018-03-22T13:31:11Z</time>
      </trkpt>
      <trkpt lat="42.96216" lon="0.02811">
        <ele>1866.2</ele>
        <time>2018-03-22T13:31:49Z</time>
      </trkpt>
      <trkpt lat="42.96221" lon="0.02803">
        <ele>1866.25</ele>
        <time>2018-03-22T13:32:04Z</time>
      </trkpt>
      <trkpt lat="42.96231" lon="0.02786">
        <ele>1865.63</ele>
        <time>2018-03-22T13:32:25Z</time>
      </trkpt>
      <trkpt lat="42.96236" lon="0.02776">
        <ele>1865.29</ele>
        <time>2018-03-22T13:32:41Z</time>
      </trkpt>
      <trkpt lat="42.96242" lon="0.02767">
        <ele>1864.39</ele>
        <time>2018-03-22T13:32:55Z</time>
      </trkpt>
      <trkpt lat="42.9625" lon="0.02751">
        <ele>1862.63</ele>
        <time>2018-03-22T13:33:13Z</time>
      </trkpt>
      <trkpt lat="42.96253" lon="0.0274">
        <ele>1860.8</ele>
        <time>2018-03-22T13:33:31Z</time>
      </trkpt>
      <trkpt lat="42.96253" lon="0.0274">
        <ele>1860.56</ele>
        <time>2018-03-22T13:33:55Z</time>
      </trkpt>
      <trkpt lat="42.96253" lon="0.02737">
        <ele>1860.35</ele>
        <time>2018-03-22T13:34:21Z</time>
      </trkpt>
      <trkpt lat="42.9625" lon="0.02718">
        <ele>1858.07</ele>
        <time>2018-03-22T13:34:39Z</time>
      </trkpt>
      <trkpt lat="42.96253" lon="0.02701">
        <ele>1854.92</ele>
        <time>2018-03-22T13:34:53Z</time>
      </trkpt>
      <trkpt lat="42.96251" lon="0.02687">
        <ele>1851.9</ele>
        <time>2018-03-22T13:35:06Z</time>
      </trkpt>
      <trkpt lat="42.96249" lon="0.02675">
        <ele>1848.63</ele>
        <time>2018-03-22T13:35:17Z</time>
      </trkpt>
      <trkpt lat="42.96248" lon="0.02661">
        <ele>1845.55</ele>
        <time>2018-03-22T13:35:29Z</time>
      </trkpt>
      <trkpt lat="42.96249" lon="0.02648">
        <ele>1842.5</ele>
        <time>2018-03-22T13:35:40Z</time>
      </trkpt>
      <trkpt lat="42.96248" lon="0.02639">
        <ele>1840.56</ele>
        <time>2018-03-22T13:35:47Z</time>
      </trkpt>
      <trkpt lat="42.96248" lon="0.02622">
        <ele>1837.25</ele>
        <time>2018-03-22T13:35:59Z</time>
      </trkpt>
      <trkpt lat="42.96248" lon="0.0261">
        <ele>1834.22</ele>
        <time>2018-03-22T13:36:15Z</time>
      </trkpt>
      <trkpt lat="42.96248" lon="0.02596">
        <ele>1832.24</ele>
        <time>2018-03-22T13:36:29Z</time>
      </trkpt>
      <trkpt lat="42.96249" lon="0.02577">
        <ele>1829.2</ele>
        <time>2018-03-22T13:36:43Z</time>
      </trkpt>
      <trkpt lat="42.96249" lon="0.02569">
        <ele>1827.04</ele>
        <time>2018-03-22T13:36:58Z</time>
      </trkpt>
      <trkpt lat="42.96249" lon="0.02542">
        <ele>1823.7</ele>
        <time>2018-03-22T13:37:17Z</time>
      </trkpt>
      <trkpt lat="42.9625" lon="0.02519">
        <ele>1820.57</ele>
        <time>2018-03-22T13:37:34Z</time>
      </trkpt>
      <trkpt lat="42.96251" lon="0.02498">
        <ele>1817.88</ele>
        <time>2018-03-22T13:37:52Z</time>
      </trkpt>
      <trkpt lat="42.9626" lon="0.02482">
        <ele>1814.94</ele>
        <time>2018-03-22T13:38:09Z</time>
      </trkpt>
      <trkpt lat="42.96267" lon="0.02472">
        <ele>1811.79</ele>
        <time>2018-03-22T13:38:22Z</time>
      </trkpt>
      <trkpt lat="42.96274" lon="0.02467">
        <ele>1808.63</ele>
        <time>2018-03-22T13:38:31Z</time>
      </trkpt>
      <trkpt lat="42.96279" lon="0.02463">
        <ele>1806.17</ele>
        <time>2018-03-22T13:38:37Z</time>
      </trkpt>
      <trkpt lat="42.96287" lon="0.02457">
        <ele>1802.4</ele>
        <time>2018-03-22T13:38:46Z</time>
      </trkpt>
      <trkpt lat="42.9629" lon="0.02455">
        <ele>1799.34</ele>
        <time>2018-03-22T13:38:53Z</time>
      </trkpt>
      <trkpt lat="42.96294" lon="0.02452">
        <ele>1797.82</ele>
        <time>2018-03-22T13:38:58Z</time>
      </trkpt>
      <trkpt lat="42.96302" lon="0.02448">
        <ele>1794.24</ele>
        <time>2018-03-22T13:39:07Z</time>
      </trkpt>
      <trkpt lat="42.96309" lon="0.02441">
        <ele>1790.85</ele>
        <time>2018-03-22T13:39:17Z</time>
      </trkpt>
      <trkpt lat="42.96317" lon="0.02435">
        <ele>1787.68</ele>
        <time>2018-03-22T13:39:27Z</time>
      </trkpt>
      <trkpt lat="42.96326" lon="0.02432">
        <ele>1784.51</ele>
        <time>2018-03-22T13:39:38Z</time>
      </trkpt>
      <trkpt lat="42.96333" lon="0.0243">
        <ele>1781.43</ele>
        <time>2018-03-22T13:39:48Z</time>
      </trkpt>
      <trkpt lat="42.96336" lon="0.02423">
        <ele>1779.51</ele>
        <time>2018-03-22T13:40:12Z</time>
      </trkpt>
      <trkpt lat="42.96343" lon="0.02412">
        <ele>1776.49</ele>
        <time>2018-03-22T13:40:25Z</time>
      </trkpt>
      <trkpt lat="42.96355" lon="0.02399">
        <ele>1773.38</ele>
        <time>2018-03-22T13:40:41Z</time>
      </trkpt>
      <trkpt lat="42.96366" lon="0.02385">
        <ele>1770.33</ele>
        <time>2018-03-22T13:40:57Z</time>
      </trkpt>
      <trkpt lat="42.96373" lon="0.0237">
        <ele>1767.25</ele>
        <time>2018-03-22T13:41:12Z</time>
      </trkpt>
      <trkpt lat="42.96381" lon="0.02356">
        <ele>1764.16</ele>
        <time>2018-03-22T13:41:25Z</time>
      </trkpt>
      <trkpt lat="42.96391" lon="0.02343">
        <ele>1761.11</ele>
        <time>2018-03-22T13:41:39Z</time>
      </trkpt>
      <trkpt lat="42.96402" lon="0.02334">
        <ele>1758.01</ele>
        <time>2018-03-22T13:41:52Z</time>
      </trkpt>
      <trkpt lat="42.9641" lon="0.02323">
        <ele>1754.85</ele>
        <time>2018-03-22T13:42:04Z</time>
      </trkpt>
      <trkpt lat="42.96413" lon="0.02316">
        <ele>1752.65</ele>
        <time>2018-03-22T13:42:11Z</time>
      </trkpt>
      <trkpt lat="42.96422" lon="0.02296">
        <ele>1749.54</ele>
        <time>2018-03-22T13:42:31Z</time>
      </trkpt>
      <trkpt lat="42.96428" lon="0.02283">
        <ele>1748.28</ele>
        <time>2018-03-22T13:42:51Z</time>
      </trkpt>
      <trkpt lat="42.96433" lon="0.02271">
        <ele>1747.93</ele>
        <time>2018-03-22T13:43:11Z</time>
      </trkpt>
      <trkpt lat="42.96441" lon="0.02256">
        <ele>1746.05</ele>
        <time>2018-03-22T13:43:31Z</time>
      </trkpt>
      <trkpt lat="42.96447" lon="0.02248">
        <ele>1745.27</ele>
        <time>2018-03-22T13:43:51Z</time>
      </trkpt>
      <trkpt lat="42.96457" lon="0.0223">
        <ele>1744.45</ele>
        <time>2018-03-22T13:44:13Z</time>
      </trkpt>
      <trkpt lat="42.96462" lon="0.02214">
        <ele>1742.85</ele>
        <time>2018-03-22T13:44:29Z</time>
      </trkpt>
      <trkpt lat="42.96467" lon="0.02199">
        <ele>1741.87</ele>
        <time>2018-03-22T13:44:46Z</time>
      </trkpt>
      <trkpt lat="42.96472" lon="0.02186">
        <ele>1739.96</ele>
        <time>2018-03-22T13:45:04Z</time>
      </trkpt>
      <trkpt lat="42.96486" lon="0.02184">
        <ele>1736.89</ele>
        <time>2018-03-22T13:45:20Z</time>
      </trkpt>
      <trkpt lat="42.96494" lon="0.02182">
        <ele>1733.72</ele>
        <time>2018-03-22T13:45:30Z</time>
      </trkpt>
      <trkpt lat="42.96499" lon="0.02178">
        <ele>1730.66</ele>
        <time>2018-03-22T13:45:38Z</time>
      </trkpt>
      <trkpt lat="42.96507" lon="0.02175">
        <ele>1727.48</ele>
        <time>2018-03-22T13:45:47Z</time>
      </trkpt>
      <trkpt lat="42.96518" lon="0.0217">
        <ele>1723.88</ele>
        <time>2018-03-22T13:45:58Z</time>
      </trkpt>
      <trkpt lat="42.96528" lon="0.02165">
        <ele>1720.86</ele>
        <time>2018-03-22T13:46:09Z</time>
      </trkpt>
      <trkpt lat="42.96538" lon="0.02154">
        <ele>1719.66</ele>
        <time>2018-03-22T13:46:25Z</time>
      </trkpt>
      <trkpt lat="42.96544" lon="0.02136">
        <ele>1719.43</ele>
        <time>2018-03-22T13:46:43Z</time>
      </trkpt>
      <trkpt lat="42.96548" lon="0.02127">
        <ele>1718.9</ele>
        <time>2018-03-22T13:46:55Z</time>
      </trkpt>
      <trkpt lat="42.96552" lon="0.02117">
        <ele>1717.64</ele>
        <time>2018-03-22T13:47:12Z</time>
      </trkpt>
      <trkpt lat="42.96553" lon="0.02118">
        <ele>1717.77</ele>
        <time>2018-03-22T13:47:39Z</time>
      </trkpt>
      <trkpt lat="42.96553" lon="0.02119">
        <ele>1717.97</ele>
        <time>2018-03-22T13:48:07Z</time>
      </trkpt>
      <trkpt lat="42.96553" lon="0.02117">
        <ele>1718.13</ele>
        <time>2018-03-22T13:48:37Z</time>
      </trkpt>
      <trkpt lat="42.96552" lon="0.02118">
        <ele>1718.07</ele>
        <time>2018-03-22T13:49:02Z</time>
      </trkpt>
      <trkpt lat="42.96552" lon="0.02118">
        <ele>1718.03</ele>
        <time>2018-03-22T13:49:28Z</time>
      </trkpt>
      <trkpt lat="42.96552" lon="0.02118">
        <ele>1718.1</ele>
        <time>2018-03-22T13:49:54Z</time>
      </trkpt>
      <trkpt lat="42.96552" lon="0.02117">
        <ele>1718.15</ele>
        <time>2018-03-22T13:50:28Z</time>
      </trkpt>
      <trkpt lat="42.96554" lon="0.02111">
        <ele>1718.07</ele>
        <time>2018-03-22T13:50:34Z</time>
      </trkpt>
      <trkpt lat="42.96555" lon="0.02106">
        <ele>1717.81</ele>
        <time>2018-03-22T13:50:38Z</time>
      </trkpt>
      <trkpt lat="42.96557" lon="0.02086">
        <ele>1714.93</ele>
        <time>2018-03-22T13:50:56Z</time>
      </trkpt>
      <trkpt lat="42.96555" lon="0.02059">
        <ele>1713.04</ele>
        <time>2018-03-22T13:51:16Z</time>
      </trkpt>
      <trkpt lat="42.96551" lon="0.02034">
        <ele>1712.35</ele>
        <time>2018-03-22T13:51:37Z</time>
      </trkpt>
      <trkpt lat="42.9655" lon="0.02016">
        <ele>1713.5</ele>
        <time>2018-03-22T13:51:56Z</time>
      </trkpt>
      <trkpt lat="42.96546" lon="0.01999">
        <ele>1715.43</ele>
        <time>2018-03-22T13:52:15Z</time>
      </trkpt>
      <trkpt lat="42.96545" lon="0.01991">
        <ele>1717.04</ele>
        <time>2018-03-22T13:52:34Z</time>
      </trkpt>
      <trkpt lat="42.96543" lon="0.01982">
        <ele>1717.72</ele>
        <time>2018-03-22T13:52:50Z</time>
      </trkpt>
      <trkpt lat="42.9654" lon="0.01965">
        <ele>1719.11</ele>
        <time>2018-03-22T13:53:07Z</time>
      </trkpt>
      <trkpt lat="42.96539" lon="0.01941">
        <ele>1718.49</ele>
        <time>2018-03-22T13:53:28Z</time>
      </trkpt>
      <trkpt lat="42.96538" lon="0.01918">
        <ele>1716.73</ele>
        <time>2018-03-22T13:53:47Z</time>
      </trkpt>
      <trkpt lat="42.96539" lon="0.01897">
        <ele>1717</ele>
        <time>2018-03-22T13:54:06Z</time>
      </trkpt>
      <trkpt lat="42.96541" lon="0.01871">
        <ele>1716.89</ele>
        <time>2018-03-22T13:54:28Z</time>
      </trkpt>
      <trkpt lat="42.96543" lon="0.01844">
        <ele>1717.22</ele>
        <time>2018-03-22T13:54:50Z</time>
      </trkpt>
      <trkpt lat="42.96539" lon="0.0182">
        <ele>1717.63</ele>
        <time>2018-03-22T13:55:11Z</time>
      </trkpt>
      <trkpt lat="42.9653" lon="0.01804">
        <ele>1718.1</ele>
        <time>2018-03-22T13:55:29Z</time>
      </trkpt>
      <trkpt lat="42.96523" lon="0.01781">
        <ele>1717.2</ele>
        <time>2018-03-22T13:55:50Z</time>
      </trkpt>
      <trkpt lat="42.96519" lon="0.01756">
        <ele>1714.85</ele>
        <time>2018-03-22T13:56:11Z</time>
      </trkpt>
      <trkpt lat="42.96521" lon="0.01738">
        <ele>1711.69</ele>
        <time>2018-03-22T13:56:26Z</time>
      </trkpt>
      <trkpt lat="42.96528" lon="0.01728">
        <ele>1708.55</ele>
        <time>2018-03-22T13:56:37Z</time>
      </trkpt>
      <trkpt lat="42.96534" lon="0.01717">
        <ele>1705.5</ele>
        <time>2018-03-22T13:56:48Z</time>
      </trkpt>
      <trkpt lat="42.9654" lon="0.01702">
        <ele>1702.33</ele>
        <time>2018-03-22T13:57:02Z</time>
      </trkpt>
      <trkpt lat="42.96545" lon="0.01687">
        <ele>1699.21</ele>
        <time>2018-03-22T13:57:16Z</time>
      </trkpt>
      <trkpt lat="42.96551" lon="0.01672">
        <ele>1696.17</ele>
        <time>2018-03-22T13:57:30Z</time>
      </trkpt>
      <trkpt lat="42.96555" lon="0.01657">
        <ele>1693.02</ele>
        <time>2018-03-22T13:57:44Z</time>
      </trkpt>
      <trkpt lat="42.96559" lon="0.0164">
        <ele>1689.86</ele>
        <time>2018-03-22T13:57:58Z</time>
      </trkpt>
      <trkpt lat="42.9656" lon="0.01628">
        <ele>1687.07</ele>
        <time>2018-03-22T13:58:18Z</time>
      </trkpt>
      <trkpt lat="42.96562" lon="0.01617">
        <ele>1685.87</ele>
        <time>2018-03-22T13:58:32Z</time>
      </trkpt>
      <trkpt lat="42.96563" lon="0.01601">
        <ele>1682.82</ele>
        <time>2018-03-22T13:58:47Z</time>
      </trkpt>
      <trkpt lat="42.96565" lon="0.01578">
        <ele>1679.7</ele>
        <time>2018-03-22T13:59:05Z</time>
      </trkpt>
      <trkpt lat="42.96569" lon="0.01553">
        <ele>1676.62</ele>
        <time>2018-03-22T13:59:25Z</time>
      </trkpt>
      <trkpt lat="42.96575" lon="0.01537">
        <ele>1673.47</ele>
        <time>2018-03-22T13:59:41Z</time>
      </trkpt>
      <trkpt lat="42.96583" lon="0.01525">
        <ele>1670.38</ele>
        <time>2018-03-22T13:59:55Z</time>
      </trkpt>
      <trkpt lat="42.96585" lon="0.01521">
        <ele>1669.72</ele>
        <time>2018-03-22T13:59:59Z</time>
      </trkpt>
      <trkpt lat="42.96589" lon="0.01513">
        <ele>1667.01</ele>
        <time>2018-03-22T14:00:19Z</time>
      </trkpt>
      <trkpt lat="42.96598" lon="0.0149">
        <ele>1663.9</ele>
        <time>2018-03-22T14:00:41Z</time>
      </trkpt>
      <trkpt lat="42.96605" lon="0.01476">
        <ele>1661.19</ele>
        <time>2018-03-22T14:00:57Z</time>
      </trkpt>
      <trkpt lat="42.96611" lon="0.01453">
        <ele>1660.83</ele>
        <time>2018-03-22T14:01:17Z</time>
      </trkpt>
      <trkpt lat="42.9661" lon="0.0143">
        <ele>1660.5</ele>
        <time>2018-03-22T14:01:37Z</time>
      </trkpt>
      <trkpt lat="42.96608" lon="0.01408">
        <ele>1659.89</ele>
        <time>2018-03-22T14:01:56Z</time>
      </trkpt>
      <trkpt lat="42.96601" lon="0.0139">
        <ele>1659.64</ele>
        <time>2018-03-22T14:02:14Z</time>
      </trkpt>
      <trkpt lat="42.96599" lon="0.01368">
        <ele>1659.93</ele>
        <time>2018-03-22T14:02:34Z</time>
      </trkpt>
      <trkpt lat="42.96604" lon="0.01342">
        <ele>1660.54</ele>
        <time>2018-03-22T14:02:56Z</time>
      </trkpt>
      <trkpt lat="42.96612" lon="0.01321">
        <ele>1660.62</ele>
        <time>2018-03-22T14:03:15Z</time>
      </trkpt>
      <trkpt lat="42.96621" lon="0.01298">
        <ele>1660.35</ele>
        <time>2018-03-22T14:03:37Z</time>
      </trkpt>
      <trkpt lat="42.96634" lon="0.01279">
        <ele>1658.73</ele>
        <time>2018-03-22T14:03:58Z</time>
      </trkpt>
      <trkpt lat="42.96644" lon="0.01262">
        <ele>1659.34</ele>
        <time>2018-03-22T14:04:20Z</time>
      </trkpt>
      <trkpt lat="42.96649" lon="0.0125">
        <ele>1661.18</ele>
        <time>2018-03-22T14:04:39Z</time>
      </trkpt>
      <trkpt lat="42.96657" lon="0.01231">
        <ele>1663.07</ele>
        <time>2018-03-22T14:05:01Z</time>
      </trkpt>
      <trkpt lat="42.96665" lon="0.0121">
        <ele>1664.58</ele>
        <time>2018-03-22T14:05:22Z</time>
      </trkpt>
      <trkpt lat="42.96668" lon="0.01189">
        <ele>1665.42</ele>
        <time>2018-03-22T14:05:42Z</time>
      </trkpt>
      <trkpt lat="42.96671" lon="0.01172">
        <ele>1666.82</ele>
        <time>2018-03-22T14:06:01Z</time>
      </trkpt>
      <trkpt lat="42.96672" lon="0.01155">
        <ele>1668.81</ele>
        <time>2018-03-22T14:06:20Z</time>
      </trkpt>
      <trkpt lat="42.96672" lon="0.01137">
        <ele>1670.43</ele>
        <time>2018-03-22T14:06:40Z</time>
      </trkpt>
      <trkpt lat="42.96672" lon="0.01119">
        <ele>1673.09</ele>
        <time>2018-03-22T14:07:01Z</time>
      </trkpt>
      <trkpt lat="42.96674" lon="0.01095">
        <ele>1674.73</ele>
        <time>2018-03-22T14:07:23Z</time>
      </trkpt>
      <trkpt lat="42.96682" lon="0.01072">
        <ele>1674.83</ele>
        <time>2018-03-22T14:07:45Z</time>
      </trkpt>
      <trkpt lat="42.96687" lon="0.01055">
        <ele>1673.23</ele>
        <time>2018-03-22T14:08:01Z</time>
      </trkpt>
      <trkpt lat="42.96692" lon="0.01039">
        <ele>1674.16</ele>
        <time>2018-03-22T14:08:21Z</time>
      </trkpt>
      <trkpt lat="42.96696" lon="0.01023">
        <ele>1676.9</ele>
        <time>2018-03-22T14:08:40Z</time>
      </trkpt>
      <trkpt lat="42.96701" lon="0.01012">
        <ele>1677.94</ele>
        <time>2018-03-22T14:08:58Z</time>
      </trkpt>
      <trkpt lat="42.96702" lon="0.0101">
        <ele>1677.91</ele>
        <time>2018-03-22T14:09:19Z</time>
      </trkpt>
      <trkpt lat="42.96708" lon="0.01">
        <ele>1677.77</ele>
        <time>2018-03-22T14:09:41Z</time>
      </trkpt>
      <trkpt lat="42.9672" lon="0.00975">
        <ele>1677.49</ele>
        <time>2018-03-22T14:10:04Z</time>
      </trkpt>
      <trkpt lat="42.96731" lon="0.00953">
        <ele>1677.82</ele>
        <time>2018-03-22T14:10:26Z</time>
      </trkpt>
      <trkpt lat="42.96742" lon="0.00933">
        <ele>1678.14</ele>
        <time>2018-03-22T14:10:47Z</time>
      </trkpt>
      <trkpt lat="42.96759" lon="0.00914">
        <ele>1678.04</ele>
        <time>2018-03-22T14:11:12Z</time>
      </trkpt>
      <trkpt lat="42.96771" lon="0.00893">
        <ele>1678.14</ele>
        <time>2018-03-22T14:11:34Z</time>
      </trkpt>
      <trkpt lat="42.96782" lon="0.00871">
        <ele>1678.24</ele>
        <time>2018-03-22T14:11:56Z</time>
      </trkpt>
      <trkpt lat="42.96787" lon="0.00856">
        <ele>1678.38</ele>
        <time>2018-03-22T14:12:12Z</time>
      </trkpt>
      <trkpt lat="42.96792" lon="0.00829">
        <ele>1676.91</ele>
        <time>2018-03-22T14:12:33Z</time>
      </trkpt>
      <trkpt lat="42.968" lon="0.008">
        <ele>1674.71</ele>
        <time>2018-03-22T14:12:56Z</time>
      </trkpt>
      <trkpt lat="42.96811" lon="0.00769">
        <ele>1672.12</ele>
        <time>2018-03-22T14:13:22Z</time>
      </trkpt>
      <trkpt lat="42.96818" lon="0.00748">
        <ele>1670.98</ele>
        <time>2018-03-22T14:13:40Z</time>
      </trkpt>
      <trkpt lat="42.96831" lon="0.00727">
        <ele>1668.49</ele>
        <time>2018-03-22T14:14:03Z</time>
      </trkpt>
      <trkpt lat="42.9683" lon="0.00728">
        <ele>1668.08</ele>
        <time>2018-03-22T14:14:30Z</time>
      </trkpt>
      <trkpt lat="42.9683" lon="0.00728">
        <ele>1668.29</ele>
        <time>2018-03-22T14:15:07Z</time>
      </trkpt>
      <trkpt lat="42.96832" lon="0.00727">
        <ele>1667.97</ele>
        <time>2018-03-22T14:15:31Z</time>
      </trkpt>
      <trkpt lat="42.96833" lon="0.00726">
        <ele>1667.84</ele>
        <time>2018-03-22T14:15:53Z</time>
      </trkpt>
      <trkpt lat="42.96833" lon="0.00728">
        <ele>1667.77</ele>
        <time>2018-03-22T14:16:33Z</time>
      </trkpt>
      <trkpt lat="42.96833" lon="0.00728">
        <ele>1668.06</ele>
        <time>2018-03-22T14:17:01Z</time>
      </trkpt>
      <trkpt lat="42.96833" lon="0.00727">
        <ele>1667.93</ele>
        <time>2018-03-22T14:17:24Z</time>
      </trkpt>
      <trkpt lat="42.96837" lon="0.00724">
        <ele>1667.79</ele>
        <time>2018-03-22T14:17:56Z</time>
      </trkpt>
      <trkpt lat="42.96848" lon="0.00707">
        <ele>1668.72</ele>
        <time>2018-03-22T14:18:15Z</time>
      </trkpt>
      <trkpt lat="42.96848" lon="0.00705">
        <ele>1669.71</ele>
        <time>2018-03-22T14:18:46Z</time>
      </trkpt>
      <trkpt lat="42.96845" lon="0.00686">
        <ele>1670.62</ele>
        <time>2018-03-22T14:19:06Z</time>
      </trkpt>
      <trkpt lat="42.96845" lon="0.00685">
        <ele>1671.71</ele>
        <time>2018-03-22T14:19:21Z</time>
      </trkpt>
      <trkpt lat="42.96846" lon="0.0067">
        <ele>1673.07</ele>
        <time>2018-03-22T14:19:46Z</time>
      </trkpt>
      <trkpt lat="42.96845" lon="0.00665">
        <ele>1673.81</ele>
        <time>2018-03-22T14:20:04Z</time>
      </trkpt>
      <trkpt lat="42.96846" lon="0.0066">
        <ele>1674.03</ele>
        <time>2018-03-22T14:20:25Z</time>
      </trkpt>
      <trkpt lat="42.96848" lon="0.00634">
        <ele>1675.8</ele>
        <time>2018-03-22T14:20:46Z</time>
      </trkpt>
      <trkpt lat="42.96849" lon="0.00614">
        <ele>1677.18</ele>
        <time>2018-03-22T14:21:04Z</time>
      </trkpt>
      <trkpt lat="42.96851" lon="0.00597">
        <ele>1678.04</ele>
        <time>2018-03-22T14:21:23Z</time>
      </trkpt>
      <trkpt lat="42.96853" lon="0.00592">
        <ele>1678.53</ele>
        <time>2018-03-22T14:21:40Z</time>
      </trkpt>
      <trkpt lat="42.96857" lon="0.00575">
        <ele>1678.96</ele>
        <time>2018-03-22T14:21:56Z</time>
      </trkpt>
      <trkpt lat="42.96859" lon="0.00565">
        <ele>1678.98</ele>
        <time>2018-03-22T14:22:08Z</time>
      </trkpt>
      <trkpt lat="42.96866" lon="0.00543">
        <ele>1678.99</ele>
        <time>2018-03-22T14:22:30Z</time>
      </trkpt>
      <trkpt lat="42.96868" lon="0.00541">
        <ele>1678.98</ele>
        <time>2018-03-22T14:22:47Z</time>
      </trkpt>
      <trkpt lat="42.96868" lon="0.00538">
        <ele>1678.95</ele>
        <time>2018-03-22T14:22:49Z</time>
      </trkpt>
      <trkpt lat="42.96874" lon="0.00522">
        <ele>1679.38</ele>
        <time>2018-03-22T14:23:07Z</time>
      </trkpt>
      <trkpt lat="42.96882" lon="0.00498">
        <ele>1679.73</ele>
        <time>2018-03-22T14:23:29Z</time>
      </trkpt>
      <trkpt lat="42.96886" lon="0.00482">
        <ele>1679.87</ele>
        <time>2018-03-22T14:23:49Z</time>
      </trkpt>
      <trkpt lat="42.96889" lon="0.00467">
        <ele>1680.26</ele>
        <time>2018-03-22T14:24:08Z</time>
      </trkpt>
      <trkpt lat="42.9689" lon="0.00453">
        <ele>1679.98</ele>
        <time>2018-03-22T14:24:28Z</time>
      </trkpt>
      <trkpt lat="42.96891" lon="0.0044">
        <ele>1679.54</ele>
        <time>2018-03-22T14:25:04Z</time>
      </trkpt>
      <trkpt lat="42.96889" lon="0.0041">
        <ele>1679.16</ele>
        <time>2018-03-22T14:25:26Z</time>
      </trkpt>
      <trkpt lat="42.96891" lon="0.00379">
        <ele>1678.37</ele>
        <time>2018-03-22T14:25:49Z</time>
      </trkpt>
      <trkpt lat="42.96899" lon="0.00345">
        <ele>1677.77</ele>
        <time>2018-03-22T14:26:14Z</time>
      </trkpt>
      <trkpt lat="42.96906" lon="0.00313">
        <ele>1677.45</ele>
        <time>2018-03-22T14:26:38Z</time>
      </trkpt>
      <trkpt lat="42.9691" lon="0.00296">
        <ele>1676.95</ele>
        <time>2018-03-22T14:26:54Z</time>
      </trkpt>
      <trkpt lat="42.96913" lon="0.00267">
        <ele>1678.06</ele>
        <time>2018-03-22T14:27:17Z</time>
      </trkpt>
      <trkpt lat="42.96918" lon="0.0024">
        <ele>1675.03</ele>
        <time>2018-03-22T14:27:37Z</time>
      </trkpt>
      <trkpt lat="42.96921" lon="0.00217">
        <ele>1675.12</ele>
        <time>2018-03-22T14:27:59Z</time>
      </trkpt>
      <trkpt lat="42.96923" lon="0.00199">
        <ele>1677.73</ele>
        <time>2018-03-22T14:28:19Z</time>
      </trkpt>
      <trkpt lat="42.96925" lon="0.0018">
        <ele>1680.22</ele>
        <time>2018-03-22T14:28:39Z</time>
      </trkpt>
      <trkpt lat="42.96927" lon="0.00158">
        <ele>1680.44</ele>
        <time>2018-03-22T14:28:58Z</time>
      </trkpt>
      <trkpt lat="42.96927" lon="0.00139">
        <ele>1680.23</ele>
        <time>2018-03-22T14:29:17Z</time>
      </trkpt>
      <trkpt lat="42.96928" lon="0.00118">
        <ele>1679.8</ele>
        <time>2018-03-22T14:29:37Z</time>
      </trkpt>
      <trkpt lat="42.96921" lon="0.00103">
        <ele>1680.52</ele>
        <time>2018-03-22T14:29:54Z</time>
      </trkpt>
      <trkpt lat="42.96917" lon="0.00084">
        <ele>1681.13</ele>
        <time>2018-03-22T14:30:13Z</time>
      </trkpt>
      <trkpt lat="42.96915" lon="0.0007">
        <ele>1681.74</ele>
        <time>2018-03-22T14:30:29Z</time>
      </trkpt>
      <trkpt lat="42.96912" lon="0.00053">
        <ele>1681.76</ele>
        <time>2018-03-22T14:30:45Z</time>
      </trkpt>
      <trkpt lat="42.96906" lon="0.0003">
        <ele>1681.66</ele>
        <time>2018-03-22T14:31:05Z</time>
      </trkpt>
      <trkpt lat="42.96904" lon="6.0E-5">
        <ele>1680.45</ele>
        <time>2018-03-22T14:31:26Z</time>
      </trkpt>
      <trkpt lat="42.96904" lon="-0.00018">
        <ele>1680.7</ele>
        <time>2018-03-22T14:31:46Z</time>
      </trkpt>
      <trkpt lat="42.96904" lon="-0.00044">
        <ele>1678.95</ele>
        <time>2018-03-22T14:32:06Z</time>
      </trkpt>
      <trkpt lat="42.96906" lon="-0.00052">
        <ele>1677.63</ele>
        <time>2018-03-22T14:32:12Z</time>
      </trkpt>
      <trkpt lat="42.96906" lon="-0.00075">
        <ele>1676.29</ele>
        <time>2018-03-22T14:32:31Z</time>
      </trkpt>
      <trkpt lat="42.96908" lon="-0.00103">
        <ele>1674.43</ele>
        <time>2018-03-22T14:32:53Z</time>
      </trkpt>
      <trkpt lat="42.9691" lon="-0.00126">
        <ele>1673.19</ele>
        <time>2018-03-22T14:33:14Z</time>
      </trkpt>
      <trkpt lat="42.96917" lon="-0.00147">
        <ele>1669.95</ele>
        <time>2018-03-22T14:33:34Z</time>
      </trkpt>
      <trkpt lat="42.96921" lon="-0.00158">
        <ele>1666.94</ele>
        <time>2018-03-22T14:33:45Z</time>
      </trkpt>
      <trkpt lat="42.96928" lon="-0.00166">
        <ele>1663.83</ele>
        <time>2018-03-22T14:33:56Z</time>
      </trkpt>
      <trkpt lat="42.96936" lon="-0.00173">
        <ele>1660.57</ele>
        <time>2018-03-22T14:34:08Z</time>
      </trkpt>
      <trkpt lat="42.9694" lon="-0.00176">
        <ele>1658.7</ele>
        <time>2018-03-22T14:34:13Z</time>
      </trkpt>
      <trkpt lat="42.96949" lon="-0.00184">
        <ele>1655.33</ele>
        <time>2018-03-22T14:34:24Z</time>
      </trkpt>
      <trkpt lat="42.96958" lon="-0.0019">
        <ele>1652.02</ele>
        <time>2018-03-22T14:34:35Z</time>
      </trkpt>
      <trkpt lat="42.96967" lon="-0.00198">
        <ele>1649.02</ele>
        <time>2018-03-22T14:34:48Z</time>
      </trkpt>
      <trkpt lat="42.96976" lon="-0.00206">
        <ele>1645.89</ele>
        <time>2018-03-22T14:35:01Z</time>
      </trkpt>
      <trkpt lat="42.96985" lon="-0.00213">
        <ele>1642.81</ele>
        <time>2018-03-22T14:35:12Z</time>
      </trkpt>
      <trkpt lat="42.96994" lon="-0.00221">
        <ele>1639.3</ele>
        <time>2018-03-22T14:35:24Z</time>
      </trkpt>
      <trkpt lat="42.97002" lon="-0.00228">
        <ele>1636.01</ele>
        <time>2018-03-22T14:35:35Z</time>
      </trkpt>
      <trkpt lat="42.9701" lon="-0.00235">
        <ele>1633</ele>
        <time>2018-03-22T14:35:45Z</time>
      </trkpt>
      <trkpt lat="42.9702" lon="-0.00242">
        <ele>1629.75</ele>
        <time>2018-03-22T14:35:57Z</time>
      </trkpt>
      <trkpt lat="42.97031" lon="-0.00251">
        <ele>1626.55</ele>
        <time>2018-03-22T14:36:11Z</time>
      </trkpt>
      <trkpt lat="42.97043" lon="-0.0026">
        <ele>1623.48</ele>
        <time>2018-03-22T14:36:25Z</time>
      </trkpt>
      <trkpt lat="42.97053" lon="-0.00267">
        <ele>1620.23</ele>
        <time>2018-03-22T14:36:38Z</time>
      </trkpt>
      <trkpt lat="42.97062" lon="-0.00271">
        <ele>1617.21</ele>
        <time>2018-03-22T14:36:48Z</time>
      </trkpt>
      <trkpt lat="42.97074" lon="-0.00275">
        <ele>1614.19</ele>
        <time>2018-03-22T14:36:59Z</time>
      </trkpt>
      <trkpt lat="42.97088" lon="-0.00279">
        <ele>1611.01</ele>
        <time>2018-03-22T14:37:12Z</time>
      </trkpt>
      <trkpt lat="42.9711" lon="-0.00286">
        <ele>1607.96</ele>
        <time>2018-03-22T14:37:35Z</time>
      </trkpt>
      <trkpt lat="42.97128" lon="-0.00292">
        <ele>1607.42</ele>
        <time>2018-03-22T14:37:55Z</time>
      </trkpt>
      <trkpt lat="42.97147" lon="-0.00296">
        <ele>1608.63</ele>
        <time>2018-03-22T14:38:16Z</time>
      </trkpt>
      <trkpt lat="42.97155" lon="-0.00299">
        <ele>1610.38</ele>
        <time>2018-03-22T14:38:33Z</time>
      </trkpt>
      <trkpt lat="42.97154" lon="-0.00299">
        <ele>1610.44</ele>
        <time>2018-03-22T14:38:48Z</time>
      </trkpt>
      <trkpt lat="42.97154" lon="-0.00299">
        <ele>1610.64</ele>
        <time>2018-03-22T14:39:11Z</time>
      </trkpt>
      <trkpt lat="42.9716" lon="-0.00303">
        <ele>1611</ele>
        <time>2018-03-22T14:39:32Z</time>
      </trkpt>
      <trkpt lat="42.97169" lon="-0.00304">
        <ele>1611.02</ele>
        <time>2018-03-22T14:39:49Z</time>
      </trkpt>
      <trkpt lat="42.97169" lon="-0.00305">
        <ele>1611.07</ele>
        <time>2018-03-22T14:40:13Z</time>
      </trkpt>
      <trkpt lat="42.97172" lon="-0.00306">
        <ele>1610.85</ele>
        <time>2018-03-22T14:40:27Z</time>
      </trkpt>
      <trkpt lat="42.97169" lon="-0.00302">
        <ele>1610.78</ele>
        <time>2018-03-22T14:40:45Z</time>
      </trkpt>
      <trkpt lat="42.97169" lon="-0.00302">
        <ele>1610.63</ele>
        <time>2018-03-22T14:41:12Z</time>
      </trkpt>
      <trkpt lat="42.97169" lon="-0.00302">
        <ele>1610.06</ele>
        <time>2018-03-22T14:41:35Z</time>
      </trkpt>
      <trkpt lat="42.97169" lon="-0.00302">
        <ele>1609.98</ele>
        <time>2018-03-22T14:42:08Z</time>
      </trkpt>
      <trkpt lat="42.97169" lon="-0.00301">
        <ele>1610.19</ele>
        <time>2018-03-22T14:42:46Z</time>
      </trkpt>
      <trkpt lat="42.9717" lon="-0.00302">
        <ele>1609.92</ele>
        <time>2018-03-22T14:43:13Z</time>
      </trkpt>
      <trkpt lat="42.9717" lon="-0.00302">
        <ele>1610.18</ele>
        <time>2018-03-22T14:44:37Z</time>
      </trkpt>
      <trkpt lat="42.9717" lon="-0.00301">
        <ele>1609.88</ele>
        <time>2018-03-22T14:45:21Z</time>
      </trkpt>
      <trkpt lat="42.9717" lon="-0.00302">
        <ele>1514.72</ele>
        <time>2018-03-22T14:45:25Z</time>
      </trkpt>
    </trkseg>
  </trk>
</gpx>